<?xml version="1.0" encoding="UTF-8" standalone="no" ?>
<gpx xmlns="http://www.topografix.com/GPX/1/1" xmlns:xsi="http://www.w3.org/2001/XMLSchema-instance" xsi:schemaLocation="http://www.topografix.com/GPX/1/1 http://www.topografix.com/GPX/1/1/gpx.xsd" version="1.1" creator="VisuGPX - https://www.visugpx.com">
  <metadata>
    <name>Rhône-Parc Tête d'Or</name>
    <desc><![CDATA[Reprise de l'activité lyonnaise.]]></desc>
  </metadata>
  <trk>
    <name><![CDATA[Sequence 1]]></name>
    <trkseg>
      <trkpt lat="45.75403" lon="4.82893">
        <ele>164</ele>
        <time>2016-08-26T05:38:15Z</time>
      </trkpt>
      <trkpt lat="45.75395" lon="4.82904">
        <ele>164</ele>
        <time>2016-08-26T05:38:21Z</time>
      </trkpt>
      <trkpt lat="45.75392" lon="4.82917">
        <ele>166</ele>
        <time>2016-08-26T05:38:27Z</time>
      </trkpt>
      <trkpt lat="45.75391" lon="4.82919">
        <ele>166</ele>
        <time>2016-08-26T05:38:28Z</time>
      </trkpt>
      <trkpt lat="45.75385" lon="4.82929">
        <ele>165</ele>
        <time>2016-08-26T05:38:34Z</time>
      </trkpt>
      <trkpt lat="45.75377" lon="4.82938">
        <ele>166</ele>
        <time>2016-08-26T05:38:40Z</time>
      </trkpt>
      <trkpt lat="45.75374" lon="4.82955">
        <ele>170</ele>
        <time>2016-08-26T05:38:49Z</time>
      </trkpt>
      <trkpt lat="45.75377" lon="4.82963">
        <ele>171</ele>
        <time>2016-08-26T05:38:52Z</time>
      </trkpt>
      <trkpt lat="45.75408" lon="4.8298">
        <ele>176</ele>
        <time>2016-08-26T05:39:01Z</time>
      </trkpt>
      <trkpt lat="45.75416" lon="4.82979">
        <ele>180</ele>
        <time>2016-08-26T05:39:05Z</time>
      </trkpt>
      <trkpt lat="45.75421" lon="4.82985">
        <ele>183</ele>
        <time>2016-08-26T05:39:11Z</time>
      </trkpt>
      <trkpt lat="45.75434" lon="4.8298">
        <ele>190</ele>
        <time>2016-08-26T05:39:17Z</time>
      </trkpt>
      <trkpt lat="45.75441" lon="4.82996">
        <ele>193</ele>
        <time>2016-08-26T05:39:25Z</time>
      </trkpt>
      <trkpt lat="45.75436" lon="4.83003">
        <ele>191</ele>
        <time>2016-08-26T05:39:31Z</time>
      </trkpt>
      <trkpt lat="45.75444" lon="4.83003">
        <ele>195</ele>
        <time>2016-08-26T05:39:35Z</time>
      </trkpt>
      <trkpt lat="45.75472" lon="4.83019">
        <ele>197</ele>
        <time>2016-08-26T05:39:43Z</time>
      </trkpt>
      <trkpt lat="45.75466" lon="4.83032">
        <ele>182</ele>
        <time>2016-08-26T05:39:50Z</time>
      </trkpt>
      <trkpt lat="45.75455" lon="4.83048">
        <ele>179</ele>
        <time>2016-08-26T05:39:57Z</time>
      </trkpt>
      <trkpt lat="45.75454" lon="4.8305">
        <ele>178</ele>
        <time>2016-08-26T05:39:58Z</time>
      </trkpt>
      <trkpt lat="45.75447" lon="4.83067">
        <ele>177</ele>
        <time>2016-08-26T05:40:06Z</time>
      </trkpt>
      <trkpt lat="45.75445" lon="4.83077">
        <ele>173</ele>
        <time>2016-08-26T05:40:10Z</time>
      </trkpt>
      <trkpt lat="45.75435" lon="4.83089">
        <ele>170</ele>
        <time>2016-08-26T05:40:19Z</time>
      </trkpt>
      <trkpt lat="45.75432" lon="4.83094">
        <ele>171</ele>
        <time>2016-08-26T05:40:22Z</time>
      </trkpt>
      <trkpt lat="45.75427" lon="4.83105">
        <ele>171</ele>
        <time>2016-08-26T05:40:28Z</time>
      </trkpt>
      <trkpt lat="45.75425" lon="4.83116">
        <ele>173</ele>
        <time>2016-08-26T05:40:34Z</time>
      </trkpt>
      <trkpt lat="45.7542" lon="4.83128">
        <ele>173</ele>
        <time>2016-08-26T05:40:40Z</time>
      </trkpt>
      <trkpt lat="45.75417" lon="4.83151">
        <ele>168</ele>
        <time>2016-08-26T05:40:51Z</time>
      </trkpt>
      <trkpt lat="45.75415" lon="4.83164">
        <ele>169</ele>
        <time>2016-08-26T05:40:57Z</time>
      </trkpt>
      <trkpt lat="45.75415" lon="4.83167">
        <ele>170</ele>
        <time>2016-08-26T05:40:58Z</time>
      </trkpt>
      <trkpt lat="45.75412" lon="4.83179">
        <ele>169</ele>
        <time>2016-08-26T05:41:05Z</time>
      </trkpt>
      <trkpt lat="45.75409" lon="4.83192">
        <ele>171</ele>
        <time>2016-08-26T05:41:11Z</time>
      </trkpt>
      <trkpt lat="45.75412" lon="4.83202">
        <ele>169</ele>
        <time>2016-08-26T05:41:16Z</time>
      </trkpt>
      <trkpt lat="45.75395" lon="4.83219">
        <ele>172</ele>
        <time>2016-08-26T05:41:27Z</time>
      </trkpt>
      <trkpt lat="45.75387" lon="4.83223">
        <ele>174</ele>
        <time>2016-08-26T05:41:31Z</time>
      </trkpt>
      <trkpt lat="45.75381" lon="4.83233">
        <ele>174</ele>
        <time>2016-08-26T05:41:36Z</time>
      </trkpt>
      <trkpt lat="45.75375" lon="4.8324">
        <ele>177</ele>
        <time>2016-08-26T05:41:40Z</time>
      </trkpt>
      <trkpt lat="45.75371" lon="4.83252">
        <ele>175</ele>
        <time>2016-08-26T05:41:46Z</time>
      </trkpt>
      <trkpt lat="45.75367" lon="4.83282">
        <ele>175</ele>
        <time>2016-08-26T05:41:57Z</time>
      </trkpt>
      <trkpt lat="45.75368" lon="4.83284">
        <ele>172</ele>
        <time>2016-08-26T05:41:58Z</time>
      </trkpt>
      <trkpt lat="45.75363" lon="4.8331">
        <ele>177</ele>
        <time>2016-08-26T05:42:09Z</time>
      </trkpt>
      <trkpt lat="45.75361" lon="4.83312">
        <ele>177</ele>
        <time>2016-08-26T05:42:10Z</time>
      </trkpt>
      <trkpt lat="45.75353" lon="4.83325">
        <ele>174</ele>
        <time>2016-08-26T05:42:18Z</time>
      </trkpt>
      <trkpt lat="45.75349" lon="4.8334">
        <ele>171</ele>
        <time>2016-08-26T05:42:25Z</time>
      </trkpt>
      <trkpt lat="45.75347" lon="4.83346">
        <ele>171</ele>
        <time>2016-08-26T05:42:28Z</time>
      </trkpt>
      <trkpt lat="45.75337" lon="4.83364">
        <ele>171</ele>
        <time>2016-08-26T05:42:39Z</time>
      </trkpt>
      <trkpt lat="45.7533" lon="4.83365">
        <ele>172</ele>
        <time>2016-08-26T05:42:43Z</time>
      </trkpt>
      <trkpt lat="45.75328" lon="4.83363">
        <ele>171</ele>
        <time>2016-08-26T05:42:46Z</time>
      </trkpt>
      <trkpt lat="45.75327" lon="4.83363">
        <ele>171</ele>
        <time>2016-08-26T05:42:52Z</time>
      </trkpt>
      <trkpt lat="45.75322" lon="4.83373">
        <ele>171</ele>
        <time>2016-08-26T05:42:58Z</time>
      </trkpt>
      <trkpt lat="45.75317" lon="4.83385">
        <ele>172</ele>
        <time>2016-08-26T05:43:04Z</time>
      </trkpt>
      <trkpt lat="45.75314" lon="4.83398">
        <ele>173</ele>
        <time>2016-08-26T05:43:10Z</time>
      </trkpt>
      <trkpt lat="45.75311" lon="4.83406">
        <ele>173</ele>
        <time>2016-08-26T05:43:16Z</time>
      </trkpt>
      <trkpt lat="45.75311" lon="4.83405">
        <ele>173</ele>
        <time>2016-08-26T05:43:22Z</time>
      </trkpt>
      <trkpt lat="45.75312" lon="4.83407">
        <ele>172</ele>
        <time>2016-08-26T05:43:28Z</time>
      </trkpt>
      <trkpt lat="45.75311" lon="4.83422">
        <ele>173</ele>
        <time>2016-08-26T05:43:34Z</time>
      </trkpt>
      <trkpt lat="45.75306" lon="4.83435">
        <ele>174</ele>
        <time>2016-08-26T05:43:40Z</time>
      </trkpt>
      <trkpt lat="45.75301" lon="4.83447">
        <ele>174</ele>
        <time>2016-08-26T05:43:46Z</time>
      </trkpt>
      <trkpt lat="45.75296" lon="4.83459">
        <ele>174</ele>
        <time>2016-08-26T05:43:52Z</time>
      </trkpt>
      <trkpt lat="45.75291" lon="4.83471">
        <ele>174</ele>
        <time>2016-08-26T05:43:58Z</time>
      </trkpt>
      <trkpt lat="45.75286" lon="4.83483">
        <ele>174</ele>
        <time>2016-08-26T05:44:04Z</time>
      </trkpt>
      <trkpt lat="45.75281" lon="4.83496">
        <ele>175</ele>
        <time>2016-08-26T05:44:10Z</time>
      </trkpt>
      <trkpt lat="45.75276" lon="4.83507">
        <ele>174</ele>
        <time>2016-08-26T05:44:16Z</time>
      </trkpt>
      <trkpt lat="45.75272" lon="4.8352">
        <ele>174</ele>
        <time>2016-08-26T05:44:22Z</time>
      </trkpt>
      <trkpt lat="45.75266" lon="4.83535">
        <ele>175</ele>
        <time>2016-08-26T05:44:29Z</time>
      </trkpt>
      <trkpt lat="45.75261" lon="4.83548">
        <ele>176</ele>
        <time>2016-08-26T05:44:35Z</time>
      </trkpt>
      <trkpt lat="45.75256" lon="4.83561">
        <ele>175</ele>
        <time>2016-08-26T05:44:41Z</time>
      </trkpt>
      <trkpt lat="45.75251" lon="4.83573">
        <ele>174</ele>
        <time>2016-08-26T05:44:47Z</time>
      </trkpt>
      <trkpt lat="45.75246" lon="4.83585">
        <ele>174</ele>
        <time>2016-08-26T05:44:53Z</time>
      </trkpt>
      <trkpt lat="45.75241" lon="4.83597">
        <ele>174</ele>
        <time>2016-08-26T05:44:59Z</time>
      </trkpt>
      <trkpt lat="45.75236" lon="4.83609">
        <ele>172</ele>
        <time>2016-08-26T05:45:05Z</time>
      </trkpt>
      <trkpt lat="45.75231" lon="4.83622">
        <ele>172</ele>
        <time>2016-08-26T05:45:11Z</time>
      </trkpt>
      <trkpt lat="45.75227" lon="4.83635">
        <ele>173</ele>
        <time>2016-08-26T05:45:17Z</time>
      </trkpt>
      <trkpt lat="45.75222" lon="4.83647">
        <ele>174</ele>
        <time>2016-08-26T05:45:23Z</time>
      </trkpt>
      <trkpt lat="45.75217" lon="4.83658">
        <ele>173</ele>
        <time>2016-08-26T05:45:29Z</time>
      </trkpt>
      <trkpt lat="45.75212" lon="4.83671">
        <ele>172</ele>
        <time>2016-08-26T05:45:35Z</time>
      </trkpt>
      <trkpt lat="45.75207" lon="4.83683">
        <ele>173</ele>
        <time>2016-08-26T05:45:41Z</time>
      </trkpt>
      <trkpt lat="45.75216" lon="4.83695">
        <ele>174</ele>
        <time>2016-08-26T05:45:49Z</time>
      </trkpt>
      <trkpt lat="45.75222" lon="4.83698">
        <ele>172</ele>
        <time>2016-08-26T05:45:53Z</time>
      </trkpt>
      <trkpt lat="45.75235" lon="4.83709">
        <ele>171</ele>
        <time>2016-08-26T05:46:03Z</time>
      </trkpt>
      <trkpt lat="45.75234" lon="4.83702">
        <ele>171</ele>
        <time>2016-08-26T05:46:07Z</time>
      </trkpt>
      <trkpt lat="45.75229" lon="4.83693">
        <ele>169</ele>
        <time>2016-08-26T05:46:14Z</time>
      </trkpt>
      <trkpt lat="45.75227" lon="4.8369">
        <ele>169</ele>
        <time>2016-08-26T05:46:17Z</time>
      </trkpt>
      <trkpt lat="45.75229" lon="4.83678">
        <ele>169</ele>
        <time>2016-08-26T05:46:23Z</time>
      </trkpt>
      <trkpt lat="45.75236" lon="4.83667">
        <ele>168</ele>
        <time>2016-08-26T05:46:29Z</time>
      </trkpt>
      <trkpt lat="45.75256" lon="4.83669">
        <ele>170</ele>
        <time>2016-08-26T05:46:40Z</time>
      </trkpt>
      <trkpt lat="45.75263" lon="4.83672">
        <ele>169</ele>
        <time>2016-08-26T05:46:45Z</time>
      </trkpt>
      <trkpt lat="45.75268" lon="4.83673">
        <ele>168</ele>
        <time>2016-08-26T05:46:48Z</time>
      </trkpt>
      <trkpt lat="45.75275" lon="4.83679">
        <ele>167</ele>
        <time>2016-08-26T05:46:53Z</time>
      </trkpt>
      <trkpt lat="45.75284" lon="4.83686">
        <ele>168</ele>
        <time>2016-08-26T05:46:59Z</time>
      </trkpt>
      <trkpt lat="45.75293" lon="4.83693">
        <ele>167</ele>
        <time>2016-08-26T05:47:05Z</time>
      </trkpt>
      <trkpt lat="45.75302" lon="4.83701">
        <ele>168</ele>
        <time>2016-08-26T05:47:11Z</time>
      </trkpt>
      <trkpt lat="45.75311" lon="4.83708">
        <ele>168</ele>
        <time>2016-08-26T05:47:17Z</time>
      </trkpt>
      <trkpt lat="45.7532" lon="4.83715">
        <ele>167</ele>
        <time>2016-08-26T05:47:23Z</time>
      </trkpt>
      <trkpt lat="45.75329" lon="4.83721">
        <ele>167</ele>
        <time>2016-08-26T05:47:29Z</time>
      </trkpt>
      <trkpt lat="45.75338" lon="4.83727">
        <ele>167</ele>
        <time>2016-08-26T05:47:35Z</time>
      </trkpt>
      <trkpt lat="45.75348" lon="4.83735">
        <ele>166</ele>
        <time>2016-08-26T05:47:41Z</time>
      </trkpt>
      <trkpt lat="45.75356" lon="4.83742">
        <ele>165</ele>
        <time>2016-08-26T05:47:47Z</time>
      </trkpt>
      <trkpt lat="45.75365" lon="4.83749">
        <ele>166</ele>
        <time>2016-08-26T05:47:53Z</time>
      </trkpt>
      <trkpt lat="45.75373" lon="4.83755">
        <ele>166</ele>
        <time>2016-08-26T05:47:59Z</time>
      </trkpt>
      <trkpt lat="45.75382" lon="4.83762">
        <ele>165</ele>
        <time>2016-08-26T05:48:05Z</time>
      </trkpt>
      <trkpt lat="45.75391" lon="4.83769">
        <ele>165</ele>
        <time>2016-08-26T05:48:11Z</time>
      </trkpt>
      <trkpt lat="45.75399" lon="4.83775">
        <ele>165</ele>
        <time>2016-08-26T05:48:17Z</time>
      </trkpt>
      <trkpt lat="45.75408" lon="4.83781">
        <ele>165</ele>
        <time>2016-08-26T05:48:23Z</time>
      </trkpt>
      <trkpt lat="45.75417" lon="4.83787">
        <ele>165</ele>
        <time>2016-08-26T05:48:29Z</time>
      </trkpt>
      <trkpt lat="45.75426" lon="4.83794">
        <ele>165</ele>
        <time>2016-08-26T05:48:35Z</time>
      </trkpt>
      <trkpt lat="45.75435" lon="4.83801">
        <ele>164</ele>
        <time>2016-08-26T05:48:41Z</time>
      </trkpt>
      <trkpt lat="45.75444" lon="4.83807">
        <ele>163</ele>
        <time>2016-08-26T05:48:47Z</time>
      </trkpt>
      <trkpt lat="45.75453" lon="4.83814">
        <ele>164</ele>
        <time>2016-08-26T05:48:53Z</time>
      </trkpt>
      <trkpt lat="45.75461" lon="4.83819">
        <ele>165</ele>
        <time>2016-08-26T05:48:59Z</time>
      </trkpt>
      <trkpt lat="45.75471" lon="4.83826">
        <ele>166</ele>
        <time>2016-08-26T05:49:05Z</time>
      </trkpt>
      <trkpt lat="45.7548" lon="4.83831">
        <ele>167</ele>
        <time>2016-08-26T05:49:11Z</time>
      </trkpt>
      <trkpt lat="45.75488" lon="4.83838">
        <ele>166</ele>
        <time>2016-08-26T05:49:17Z</time>
      </trkpt>
      <trkpt lat="45.75498" lon="4.83844">
        <ele>166</ele>
        <time>2016-08-26T05:49:23Z</time>
      </trkpt>
      <trkpt lat="45.75507" lon="4.83849">
        <ele>165</ele>
        <time>2016-08-26T05:49:29Z</time>
      </trkpt>
      <trkpt lat="45.75517" lon="4.83855">
        <ele>164</ele>
        <time>2016-08-26T05:49:35Z</time>
      </trkpt>
      <trkpt lat="45.75526" lon="4.83861">
        <ele>166</ele>
        <time>2016-08-26T05:49:41Z</time>
      </trkpt>
      <trkpt lat="45.75535" lon="4.83867">
        <ele>165</ele>
        <time>2016-08-26T05:49:47Z</time>
      </trkpt>
      <trkpt lat="45.75543" lon="4.83875">
        <ele>166</ele>
        <time>2016-08-26T05:49:53Z</time>
      </trkpt>
      <trkpt lat="45.75551" lon="4.83883">
        <ele>168</ele>
        <time>2016-08-26T05:49:59Z</time>
      </trkpt>
      <trkpt lat="45.7556" lon="4.83891">
        <ele>168</ele>
        <time>2016-08-26T05:50:05Z</time>
      </trkpt>
      <trkpt lat="45.75569" lon="4.83896">
        <ele>168</ele>
        <time>2016-08-26T05:50:11Z</time>
      </trkpt>
      <trkpt lat="45.75579" lon="4.83902">
        <ele>168</ele>
        <time>2016-08-26T05:50:17Z</time>
      </trkpt>
      <trkpt lat="45.75587" lon="4.83908">
        <ele>168</ele>
        <time>2016-08-26T05:50:23Z</time>
      </trkpt>
      <trkpt lat="45.75597" lon="4.83912">
        <ele>168</ele>
        <time>2016-08-26T05:50:29Z</time>
      </trkpt>
      <trkpt lat="45.75606" lon="4.83918">
        <ele>169</ele>
        <time>2016-08-26T05:50:35Z</time>
      </trkpt>
      <trkpt lat="45.75616" lon="4.83923">
        <ele>168</ele>
        <time>2016-08-26T05:50:41Z</time>
      </trkpt>
      <trkpt lat="45.75625" lon="4.83928">
        <ele>167</ele>
        <time>2016-08-26T05:50:47Z</time>
      </trkpt>
      <trkpt lat="45.75633" lon="4.83934">
        <ele>165</ele>
        <time>2016-08-26T05:50:53Z</time>
      </trkpt>
      <trkpt lat="45.75642" lon="4.8394">
        <ele>164</ele>
        <time>2016-08-26T05:50:59Z</time>
      </trkpt>
      <trkpt lat="45.75668" lon="4.83941">
        <ele>162</ele>
        <time>2016-08-26T05:51:10Z</time>
      </trkpt>
      <trkpt lat="45.75676" lon="4.83947">
        <ele>169</ele>
        <time>2016-08-26T05:51:16Z</time>
      </trkpt>
      <trkpt lat="45.75682" lon="4.8395">
        <ele>169</ele>
        <time>2016-08-26T05:51:20Z</time>
      </trkpt>
      <trkpt lat="45.75691" lon="4.83958">
        <ele>169</ele>
        <time>2016-08-26T05:51:28Z</time>
      </trkpt>
      <trkpt lat="45.75693" lon="4.83959">
        <ele>168</ele>
        <time>2016-08-26T05:51:29Z</time>
      </trkpt>
      <trkpt lat="45.75701" lon="4.83964">
        <ele>168</ele>
        <time>2016-08-26T05:51:35Z</time>
      </trkpt>
      <trkpt lat="45.7571" lon="4.83969">
        <ele>168</ele>
        <time>2016-08-26T05:51:41Z</time>
      </trkpt>
      <trkpt lat="45.75719" lon="4.83973">
        <ele>168</ele>
        <time>2016-08-26T05:51:47Z</time>
      </trkpt>
      <trkpt lat="45.75728" lon="4.83978">
        <ele>166</ele>
        <time>2016-08-26T05:51:53Z</time>
      </trkpt>
      <trkpt lat="45.75738" lon="4.83982">
        <ele>167</ele>
        <time>2016-08-26T05:51:59Z</time>
      </trkpt>
      <trkpt lat="45.75747" lon="4.83986">
        <ele>168</ele>
        <time>2016-08-26T05:52:05Z</time>
      </trkpt>
      <trkpt lat="45.75757" lon="4.8399">
        <ele>166</ele>
        <time>2016-08-26T05:52:11Z</time>
      </trkpt>
      <trkpt lat="45.75767" lon="4.83994">
        <ele>167</ele>
        <time>2016-08-26T05:52:17Z</time>
      </trkpt>
      <trkpt lat="45.75777" lon="4.83998">
        <ele>167</ele>
        <time>2016-08-26T05:52:23Z</time>
      </trkpt>
      <trkpt lat="45.75787" lon="4.84">
        <ele>167</ele>
        <time>2016-08-26T05:52:29Z</time>
      </trkpt>
      <trkpt lat="45.75797" lon="4.84004">
        <ele>167</ele>
        <time>2016-08-26T05:52:35Z</time>
      </trkpt>
      <trkpt lat="45.75807" lon="4.84007">
        <ele>165</ele>
        <time>2016-08-26T05:52:41Z</time>
      </trkpt>
      <trkpt lat="45.75816" lon="4.84011">
        <ele>164</ele>
        <time>2016-08-26T05:52:47Z</time>
      </trkpt>
      <trkpt lat="45.75826" lon="4.84014">
        <ele>164</ele>
        <time>2016-08-26T05:52:53Z</time>
      </trkpt>
      <trkpt lat="45.75836" lon="4.84017">
        <ele>164</ele>
        <time>2016-08-26T05:52:59Z</time>
      </trkpt>
      <trkpt lat="45.75845" lon="4.84019">
        <ele>164</ele>
        <time>2016-08-26T05:53:05Z</time>
      </trkpt>
      <trkpt lat="45.75855" lon="4.84021">
        <ele>164</ele>
        <time>2016-08-26T05:53:11Z</time>
      </trkpt>
      <trkpt lat="45.75865" lon="4.84022">
        <ele>163</ele>
        <time>2016-08-26T05:53:17Z</time>
      </trkpt>
      <trkpt lat="45.75875" lon="4.84023">
        <ele>163</ele>
        <time>2016-08-26T05:53:23Z</time>
      </trkpt>
      <trkpt lat="45.75885" lon="4.84024">
        <ele>163</ele>
        <time>2016-08-26T05:53:29Z</time>
      </trkpt>
      <trkpt lat="45.75895" lon="4.84026">
        <ele>162</ele>
        <time>2016-08-26T05:53:35Z</time>
      </trkpt>
      <trkpt lat="45.75905" lon="4.84028">
        <ele>163</ele>
        <time>2016-08-26T05:53:41Z</time>
      </trkpt>
      <trkpt lat="45.75915" lon="4.8403">
        <ele>163</ele>
        <time>2016-08-26T05:53:47Z</time>
      </trkpt>
      <trkpt lat="45.75925" lon="4.84031">
        <ele>165</ele>
        <time>2016-08-26T05:53:53Z</time>
      </trkpt>
      <trkpt lat="45.75935" lon="4.84031">
        <ele>165</ele>
        <time>2016-08-26T05:53:59Z</time>
      </trkpt>
      <trkpt lat="45.75944" lon="4.84032">
        <ele>165</ele>
        <time>2016-08-26T05:54:05Z</time>
      </trkpt>
      <trkpt lat="45.75954" lon="4.84035">
        <ele>163</ele>
        <time>2016-08-26T05:54:14Z</time>
      </trkpt>
      <trkpt lat="45.75969" lon="4.84037">
        <ele>165</ele>
        <time>2016-08-26T05:54:22Z</time>
      </trkpt>
      <trkpt lat="45.75971" lon="4.84037">
        <ele>165</ele>
        <time>2016-08-26T05:54:23Z</time>
      </trkpt>
      <trkpt lat="45.75983" lon="4.84037">
        <ele>165</ele>
        <time>2016-08-26T05:54:29Z</time>
      </trkpt>
      <trkpt lat="45.75993" lon="4.84039">
        <ele>163</ele>
        <time>2016-08-26T05:54:35Z</time>
      </trkpt>
      <trkpt lat="45.76004" lon="4.84042">
        <ele>161</ele>
        <time>2016-08-26T05:54:41Z</time>
      </trkpt>
      <trkpt lat="45.7602" lon="4.84047">
        <ele>160</ele>
        <time>2016-08-26T05:54:52Z</time>
      </trkpt>
      <trkpt lat="45.76031" lon="4.84047">
        <ele>163</ele>
        <time>2016-08-26T05:54:58Z</time>
      </trkpt>
      <trkpt lat="45.76042" lon="4.84045">
        <ele>163</ele>
        <time>2016-08-26T05:55:04Z</time>
      </trkpt>
      <trkpt lat="45.76045" lon="4.84045">
        <ele>164</ele>
        <time>2016-08-26T05:55:06Z</time>
      </trkpt>
      <trkpt lat="45.76053" lon="4.84048">
        <ele>164</ele>
        <time>2016-08-26T05:55:11Z</time>
      </trkpt>
      <trkpt lat="45.76065" lon="4.84048">
        <ele>166</ele>
        <time>2016-08-26T05:55:18Z</time>
      </trkpt>
      <trkpt lat="45.76074" lon="4.8405">
        <ele>166</ele>
        <time>2016-08-26T05:55:23Z</time>
      </trkpt>
      <trkpt lat="45.76084" lon="4.84052">
        <ele>165</ele>
        <time>2016-08-26T05:55:29Z</time>
      </trkpt>
      <trkpt lat="45.76094" lon="4.84054">
        <ele>166</ele>
        <time>2016-08-26T05:55:35Z</time>
      </trkpt>
      <trkpt lat="45.76104" lon="4.84055">
        <ele>166</ele>
        <time>2016-08-26T05:55:41Z</time>
      </trkpt>
      <trkpt lat="45.76114" lon="4.84055">
        <ele>167</ele>
        <time>2016-08-26T05:55:47Z</time>
      </trkpt>
      <trkpt lat="45.76124" lon="4.84055">
        <ele>166</ele>
        <time>2016-08-26T05:55:53Z</time>
      </trkpt>
      <trkpt lat="45.76134" lon="4.84057">
        <ele>165</ele>
        <time>2016-08-26T05:55:59Z</time>
      </trkpt>
      <trkpt lat="45.76153" lon="4.84061">
        <ele>165</ele>
        <time>2016-08-26T05:56:10Z</time>
      </trkpt>
      <trkpt lat="45.76155" lon="4.84061">
        <ele>164</ele>
        <time>2016-08-26T05:56:11Z</time>
      </trkpt>
      <trkpt lat="45.76165" lon="4.84063">
        <ele>163</ele>
        <time>2016-08-26T05:56:17Z</time>
      </trkpt>
      <trkpt lat="45.76177" lon="4.84064">
        <ele>164</ele>
        <time>2016-08-26T05:56:24Z</time>
      </trkpt>
      <trkpt lat="45.76186" lon="4.84066">
        <ele>164</ele>
        <time>2016-08-26T05:56:30Z</time>
      </trkpt>
      <trkpt lat="45.76196" lon="4.84068">
        <ele>162</ele>
        <time>2016-08-26T05:56:36Z</time>
      </trkpt>
      <trkpt lat="45.76206" lon="4.8407">
        <ele>162</ele>
        <time>2016-08-26T05:56:42Z</time>
      </trkpt>
      <trkpt lat="45.76216" lon="4.8407">
        <ele>163</ele>
        <time>2016-08-26T05:56:48Z</time>
      </trkpt>
      <trkpt lat="45.76226" lon="4.84071">
        <ele>164</ele>
        <time>2016-08-26T05:56:54Z</time>
      </trkpt>
      <trkpt lat="45.76238" lon="4.84074">
        <ele>160</ele>
        <time>2016-08-26T05:57:01Z</time>
      </trkpt>
      <trkpt lat="45.76247" lon="4.84075">
        <ele>160</ele>
        <time>2016-08-26T05:57:06Z</time>
      </trkpt>
      <trkpt lat="45.76259" lon="4.84077">
        <ele>161</ele>
        <time>2016-08-26T05:57:13Z</time>
      </trkpt>
      <trkpt lat="45.76267" lon="4.84079">
        <ele>160</ele>
        <time>2016-08-26T05:57:18Z</time>
      </trkpt>
      <trkpt lat="45.76277" lon="4.8408">
        <ele>161</ele>
        <time>2016-08-26T05:57:24Z</time>
      </trkpt>
      <trkpt lat="45.76287" lon="4.84082">
        <ele>161</ele>
        <time>2016-08-26T05:57:30Z</time>
      </trkpt>
      <trkpt lat="45.76298" lon="4.84083">
        <ele>160</ele>
        <time>2016-08-26T05:57:36Z</time>
      </trkpt>
      <trkpt lat="45.76309" lon="4.84084">
        <ele>160</ele>
        <time>2016-08-26T05:57:42Z</time>
      </trkpt>
      <trkpt lat="45.7632" lon="4.84087">
        <ele>161</ele>
        <time>2016-08-26T05:57:49Z</time>
      </trkpt>
      <trkpt lat="45.76328" lon="4.84087">
        <ele>161</ele>
        <time>2016-08-26T05:57:54Z</time>
      </trkpt>
      <trkpt lat="45.76337" lon="4.84085">
        <ele>159</ele>
        <time>2016-08-26T05:58:00Z</time>
      </trkpt>
      <trkpt lat="45.76346" lon="4.8409">
        <ele>157</ele>
        <time>2016-08-26T05:58:06Z</time>
      </trkpt>
      <trkpt lat="45.76356" lon="4.8409">
        <ele>156</ele>
        <time>2016-08-26T05:58:12Z</time>
      </trkpt>
      <trkpt lat="45.76371" lon="4.84097">
        <ele>153</ele>
        <time>2016-08-26T05:58:21Z</time>
      </trkpt>
      <trkpt lat="45.76386" lon="4.84095">
        <ele>163</ele>
        <time>2016-08-26T05:58:29Z</time>
      </trkpt>
      <trkpt lat="45.76395" lon="4.84092">
        <ele>166</ele>
        <time>2016-08-26T05:58:34Z</time>
      </trkpt>
      <trkpt lat="45.76404" lon="4.84092">
        <ele>165</ele>
        <time>2016-08-26T05:58:39Z</time>
      </trkpt>
      <trkpt lat="45.76409" lon="4.84092">
        <ele>165</ele>
        <time>2016-08-26T05:58:42Z</time>
      </trkpt>
      <trkpt lat="45.76419" lon="4.84092">
        <ele>166</ele>
        <time>2016-08-26T05:58:48Z</time>
      </trkpt>
      <trkpt lat="45.76429" lon="4.84093">
        <ele>164</ele>
        <time>2016-08-26T05:58:54Z</time>
      </trkpt>
      <trkpt lat="45.7644" lon="4.84094">
        <ele>164</ele>
        <time>2016-08-26T05:59:00Z</time>
      </trkpt>
      <trkpt lat="45.7645" lon="4.84094">
        <ele>165</ele>
        <time>2016-08-26T05:59:06Z</time>
      </trkpt>
      <trkpt lat="45.7646" lon="4.84095">
        <ele>164</ele>
        <time>2016-08-26T05:59:12Z</time>
      </trkpt>
      <trkpt lat="45.7647" lon="4.84095">
        <ele>165</ele>
        <time>2016-08-26T05:59:18Z</time>
      </trkpt>
      <trkpt lat="45.7648" lon="4.84096">
        <ele>165</ele>
        <time>2016-08-26T05:59:24Z</time>
      </trkpt>
      <trkpt lat="45.76491" lon="4.84096">
        <ele>166</ele>
        <time>2016-08-26T05:59:30Z</time>
      </trkpt>
      <trkpt lat="45.76502" lon="4.84096">
        <ele>165</ele>
        <time>2016-08-26T05:59:36Z</time>
      </trkpt>
      <trkpt lat="45.76512" lon="4.84097">
        <ele>166</ele>
        <time>2016-08-26T05:59:42Z</time>
      </trkpt>
      <trkpt lat="45.76522" lon="4.84097">
        <ele>165</ele>
        <time>2016-08-26T05:59:48Z</time>
      </trkpt>
      <trkpt lat="45.76531" lon="4.84097">
        <ele>166</ele>
        <time>2016-08-26T05:59:54Z</time>
      </trkpt>
      <trkpt lat="45.76542" lon="4.84097">
        <ele>166</ele>
        <time>2016-08-26T06:00:00Z</time>
      </trkpt>
      <trkpt lat="45.76552" lon="4.84097">
        <ele>165</ele>
        <time>2016-08-26T06:00:06Z</time>
      </trkpt>
      <trkpt lat="45.76567" lon="4.84099">
        <ele>164</ele>
        <time>2016-08-26T06:00:16Z</time>
      </trkpt>
      <trkpt lat="45.76571" lon="4.841">
        <ele>164</ele>
        <time>2016-08-26T06:00:18Z</time>
      </trkpt>
      <trkpt lat="45.76584" lon="4.84099">
        <ele>164</ele>
        <time>2016-08-26T06:00:26Z</time>
      </trkpt>
      <trkpt lat="45.76593" lon="4.84098">
        <ele>165</ele>
        <time>2016-08-26T06:00:31Z</time>
      </trkpt>
      <trkpt lat="45.76602" lon="4.84096">
        <ele>164</ele>
        <time>2016-08-26T06:00:36Z</time>
      </trkpt>
      <trkpt lat="45.76611" lon="4.84094">
        <ele>164</ele>
        <time>2016-08-26T06:00:42Z</time>
      </trkpt>
      <trkpt lat="45.76621" lon="4.84093">
        <ele>163</ele>
        <time>2016-08-26T06:00:48Z</time>
      </trkpt>
      <trkpt lat="45.7663" lon="4.84092">
        <ele>164</ele>
        <time>2016-08-26T06:00:54Z</time>
      </trkpt>
      <trkpt lat="45.7664" lon="4.8409">
        <ele>164</ele>
        <time>2016-08-26T06:01:00Z</time>
      </trkpt>
      <trkpt lat="45.7665" lon="4.84088">
        <ele>164</ele>
        <time>2016-08-26T06:01:06Z</time>
      </trkpt>
      <trkpt lat="45.7666" lon="4.84087">
        <ele>163</ele>
        <time>2016-08-26T06:01:12Z</time>
      </trkpt>
      <trkpt lat="45.7667" lon="4.84086">
        <ele>162</ele>
        <time>2016-08-26T06:01:18Z</time>
      </trkpt>
      <trkpt lat="45.7668" lon="4.84083">
        <ele>162</ele>
        <time>2016-08-26T06:01:24Z</time>
      </trkpt>
      <trkpt lat="45.7669" lon="4.84082">
        <ele>161</ele>
        <time>2016-08-26T06:01:30Z</time>
      </trkpt>
      <trkpt lat="45.76702" lon="4.84081">
        <ele>161</ele>
        <time>2016-08-26T06:01:37Z</time>
      </trkpt>
      <trkpt lat="45.7671" lon="4.8408">
        <ele>161</ele>
        <time>2016-08-26T06:01:42Z</time>
      </trkpt>
      <trkpt lat="45.7672" lon="4.84079">
        <ele>162</ele>
        <time>2016-08-26T06:01:48Z</time>
      </trkpt>
      <trkpt lat="45.76729" lon="4.84077">
        <ele>163</ele>
        <time>2016-08-26T06:01:54Z</time>
      </trkpt>
      <trkpt lat="45.76739" lon="4.84075">
        <ele>163</ele>
        <time>2016-08-26T06:02:00Z</time>
      </trkpt>
      <trkpt lat="45.76749" lon="4.84074">
        <ele>164</ele>
        <time>2016-08-26T06:02:07Z</time>
      </trkpt>
      <trkpt lat="45.76758" lon="4.84073">
        <ele>164</ele>
        <time>2016-08-26T06:02:12Z</time>
      </trkpt>
      <trkpt lat="45.76767" lon="4.84072">
        <ele>166</ele>
        <time>2016-08-26T06:02:18Z</time>
      </trkpt>
      <trkpt lat="45.76779" lon="4.84072">
        <ele>166</ele>
        <time>2016-08-26T06:02:25Z</time>
      </trkpt>
      <trkpt lat="45.76787" lon="4.84072">
        <ele>166</ele>
        <time>2016-08-26T06:02:30Z</time>
      </trkpt>
      <trkpt lat="45.76798" lon="4.84072">
        <ele>163</ele>
        <time>2016-08-26T06:02:36Z</time>
      </trkpt>
      <trkpt lat="45.76803" lon="4.84071">
        <ele>163</ele>
        <time>2016-08-26T06:02:42Z</time>
      </trkpt>
      <trkpt lat="45.76813" lon="4.8407">
        <ele>162</ele>
        <time>2016-08-26T06:02:48Z</time>
      </trkpt>
      <trkpt lat="45.76826" lon="4.84069">
        <ele>164</ele>
        <time>2016-08-26T06:02:55Z</time>
      </trkpt>
      <trkpt lat="45.76837" lon="4.84068">
        <ele>162</ele>
        <time>2016-08-26T06:03:01Z</time>
      </trkpt>
      <trkpt lat="45.76846" lon="4.84067">
        <ele>162</ele>
        <time>2016-08-26T06:03:06Z</time>
      </trkpt>
      <trkpt lat="45.76856" lon="4.84066">
        <ele>162</ele>
        <time>2016-08-26T06:03:12Z</time>
      </trkpt>
      <trkpt lat="45.76867" lon="4.84068">
        <ele>160</ele>
        <time>2016-08-26T06:03:18Z</time>
      </trkpt>
      <trkpt lat="45.76888" lon="4.8407">
        <ele>157</ele>
        <time>2016-08-26T06:03:29Z</time>
      </trkpt>
      <trkpt lat="45.76889" lon="4.8407">
        <ele>158</ele>
        <time>2016-08-26T06:03:30Z</time>
      </trkpt>
      <trkpt lat="45.76905" lon="4.84065">
        <ele>163</ele>
        <time>2016-08-26T06:03:41Z</time>
      </trkpt>
      <trkpt lat="45.76907" lon="4.84064">
        <ele>164</ele>
        <time>2016-08-26T06:03:42Z</time>
      </trkpt>
      <trkpt lat="45.76922" lon="4.8406">
        <ele>168</ele>
        <time>2016-08-26T06:03:52Z</time>
      </trkpt>
      <trkpt lat="45.76925" lon="4.8406">
        <ele>168</ele>
        <time>2016-08-26T06:03:54Z</time>
      </trkpt>
      <trkpt lat="45.76936" lon="4.8406">
        <ele>167</ele>
        <time>2016-08-26T06:04:01Z</time>
      </trkpt>
      <trkpt lat="45.76946" lon="4.84062">
        <ele>166</ele>
        <time>2016-08-26T06:04:07Z</time>
      </trkpt>
      <trkpt lat="45.76957" lon="4.84063">
        <ele>162</ele>
        <time>2016-08-26T06:04:13Z</time>
      </trkpt>
      <trkpt lat="45.76972" lon="4.84066">
        <ele>158</ele>
        <time>2016-08-26T06:04:21Z</time>
      </trkpt>
      <trkpt lat="45.76977" lon="4.84066">
        <ele>154</ele>
        <time>2016-08-26T06:04:24Z</time>
      </trkpt>
      <trkpt lat="45.76991" lon="4.84066">
        <ele>157</ele>
        <time>2016-08-26T06:04:31Z</time>
      </trkpt>
      <trkpt lat="45.77004" lon="4.84069">
        <ele>155</ele>
        <time>2016-08-26T06:04:40Z</time>
      </trkpt>
      <trkpt lat="45.77007" lon="4.84068">
        <ele>157</ele>
        <time>2016-08-26T06:04:42Z</time>
      </trkpt>
      <trkpt lat="45.77016" lon="4.8407">
        <ele>158</ele>
        <time>2016-08-26T06:04:49Z</time>
      </trkpt>
      <trkpt lat="45.77025" lon="4.8407">
        <ele>158</ele>
        <time>2016-08-26T06:04:54Z</time>
      </trkpt>
      <trkpt lat="45.77044" lon="4.84068">
        <ele>157</ele>
        <time>2016-08-26T06:05:05Z</time>
      </trkpt>
      <trkpt lat="45.77046" lon="4.84068">
        <ele>156</ele>
        <time>2016-08-26T06:05:06Z</time>
      </trkpt>
      <trkpt lat="45.77059" lon="4.84069">
        <ele>155</ele>
        <time>2016-08-26T06:05:16Z</time>
      </trkpt>
      <trkpt lat="45.77063" lon="4.84067">
        <ele>156</ele>
        <time>2016-08-26T06:05:18Z</time>
      </trkpt>
      <trkpt lat="45.77073" lon="4.84067">
        <ele>157</ele>
        <time>2016-08-26T06:05:24Z</time>
      </trkpt>
      <trkpt lat="45.77093" lon="4.84067">
        <ele>155</ele>
        <time>2016-08-26T06:05:35Z</time>
      </trkpt>
      <trkpt lat="45.77094" lon="4.84067">
        <ele>155</ele>
        <time>2016-08-26T06:05:36Z</time>
      </trkpt>
      <trkpt lat="45.77104" lon="4.84068">
        <ele>158</ele>
        <time>2016-08-26T06:05:42Z</time>
      </trkpt>
      <trkpt lat="45.77119" lon="4.8407">
        <ele>158</ele>
        <time>2016-08-26T06:05:52Z</time>
      </trkpt>
      <trkpt lat="45.77129" lon="4.8407">
        <ele>159</ele>
        <time>2016-08-26T06:05:58Z</time>
      </trkpt>
      <trkpt lat="45.77133" lon="4.8407">
        <ele>159</ele>
        <time>2016-08-26T06:06:01Z</time>
      </trkpt>
      <trkpt lat="45.7714" lon="4.8407">
        <ele>160</ele>
        <time>2016-08-26T06:06:06Z</time>
      </trkpt>
      <trkpt lat="45.7715" lon="4.84069">
        <ele>161</ele>
        <time>2016-08-26T06:06:12Z</time>
      </trkpt>
      <trkpt lat="45.77161" lon="4.8407">
        <ele>162</ele>
        <time>2016-08-26T06:06:18Z</time>
      </trkpt>
      <trkpt lat="45.77171" lon="4.8407">
        <ele>164</ele>
        <time>2016-08-26T06:06:24Z</time>
      </trkpt>
      <trkpt lat="45.77181" lon="4.8407">
        <ele>167</ele>
        <time>2016-08-26T06:06:30Z</time>
      </trkpt>
      <trkpt lat="45.77191" lon="4.8407">
        <ele>168</ele>
        <time>2016-08-26T06:06:36Z</time>
      </trkpt>
      <trkpt lat="45.77208" lon="4.84069">
        <ele>169</ele>
        <time>2016-08-26T06:06:46Z</time>
      </trkpt>
      <trkpt lat="45.77212" lon="4.84069">
        <ele>169</ele>
        <time>2016-08-26T06:06:48Z</time>
      </trkpt>
      <trkpt lat="45.77223" lon="4.84069">
        <ele>171</ele>
        <time>2016-08-26T06:06:54Z</time>
      </trkpt>
      <trkpt lat="45.77234" lon="4.84069">
        <ele>172</ele>
        <time>2016-08-26T06:07:00Z</time>
      </trkpt>
      <trkpt lat="45.77256" lon="4.84064">
        <ele>170</ele>
        <time>2016-08-26T06:07:15Z</time>
      </trkpt>
      <trkpt lat="45.77264" lon="4.84071">
        <ele>170</ele>
        <time>2016-08-26T06:07:20Z</time>
      </trkpt>
      <trkpt lat="45.77267" lon="4.84073">
        <ele>168</ele>
        <time>2016-08-26T06:07:22Z</time>
      </trkpt>
      <trkpt lat="45.77281" lon="4.84081">
        <ele>164</ele>
        <time>2016-08-26T06:07:31Z</time>
      </trkpt>
      <trkpt lat="45.77289" lon="4.84084">
        <ele>162</ele>
        <time>2016-08-26T06:07:36Z</time>
      </trkpt>
      <trkpt lat="45.77297" lon="4.84089">
        <ele>159</ele>
        <time>2016-08-26T06:07:41Z</time>
      </trkpt>
      <trkpt lat="45.77305" lon="4.84095">
        <ele>159</ele>
        <time>2016-08-26T06:07:46Z</time>
      </trkpt>
      <trkpt lat="45.77318" lon="4.84102">
        <ele>161</ele>
        <time>2016-08-26T06:07:54Z</time>
      </trkpt>
      <trkpt lat="45.77326" lon="4.84106">
        <ele>163</ele>
        <time>2016-08-26T06:07:59Z</time>
      </trkpt>
      <trkpt lat="45.77337" lon="4.84117">
        <ele>165</ele>
        <time>2016-08-26T06:08:08Z</time>
      </trkpt>
      <trkpt lat="45.77342" lon="4.84121">
        <ele>164</ele>
        <time>2016-08-26T06:08:11Z</time>
      </trkpt>
      <trkpt lat="45.77352" lon="4.84129">
        <ele>164</ele>
        <time>2016-08-26T06:08:18Z</time>
      </trkpt>
      <trkpt lat="45.77361" lon="4.84133">
        <ele>160</ele>
        <time>2016-08-26T06:08:24Z</time>
      </trkpt>
      <trkpt lat="45.77367" lon="4.84137">
        <ele>160</ele>
        <time>2016-08-26T06:08:28Z</time>
      </trkpt>
      <trkpt lat="45.77376" lon="4.84144">
        <ele>160</ele>
        <time>2016-08-26T06:08:34Z</time>
      </trkpt>
      <trkpt lat="45.77387" lon="4.84149">
        <ele>157</ele>
        <time>2016-08-26T06:08:40Z</time>
      </trkpt>
      <trkpt lat="45.77395" lon="4.84156">
        <ele>159</ele>
        <time>2016-08-26T06:08:46Z</time>
      </trkpt>
      <trkpt lat="45.77407" lon="4.84162">
        <ele>160</ele>
        <time>2016-08-26T06:08:53Z</time>
      </trkpt>
      <trkpt lat="45.77419" lon="4.84171">
        <ele>163</ele>
        <time>2016-08-26T06:09:01Z</time>
      </trkpt>
      <trkpt lat="45.77424" lon="4.84174">
        <ele>162</ele>
        <time>2016-08-26T06:09:04Z</time>
      </trkpt>
      <trkpt lat="45.77439" lon="4.84183">
        <ele>160</ele>
        <time>2016-08-26T06:09:13Z</time>
      </trkpt>
      <trkpt lat="45.77444" lon="4.84186">
        <ele>159</ele>
        <time>2016-08-26T06:09:16Z</time>
      </trkpt>
      <trkpt lat="45.77453" lon="4.84193">
        <ele>162</ele>
        <time>2016-08-26T06:09:22Z</time>
      </trkpt>
      <trkpt lat="45.77461" lon="4.84201">
        <ele>162</ele>
        <time>2016-08-26T06:09:28Z</time>
      </trkpt>
      <trkpt lat="45.77477" lon="4.84212">
        <ele>163</ele>
        <time>2016-08-26T06:09:38Z</time>
      </trkpt>
      <trkpt lat="45.77481" lon="4.84215">
        <ele>162</ele>
        <time>2016-08-26T06:09:41Z</time>
      </trkpt>
      <trkpt lat="45.7749" lon="4.84222">
        <ele>161</ele>
        <time>2016-08-26T06:09:47Z</time>
      </trkpt>
      <trkpt lat="45.775" lon="4.84229">
        <ele>164</ele>
        <time>2016-08-26T06:09:54Z</time>
      </trkpt>
      <trkpt lat="45.77506" lon="4.84234">
        <ele>165</ele>
        <time>2016-08-26T06:09:58Z</time>
      </trkpt>
      <trkpt lat="45.77516" lon="4.8424">
        <ele>161</ele>
        <time>2016-08-26T06:10:05Z</time>
      </trkpt>
      <trkpt lat="45.77527" lon="4.84247">
        <ele>162</ele>
        <time>2016-08-26T06:10:13Z</time>
      </trkpt>
      <trkpt lat="45.77532" lon="4.8425">
        <ele>164</ele>
        <time>2016-08-26T06:10:16Z</time>
      </trkpt>
      <trkpt lat="45.7754" lon="4.84256">
        <ele>164</ele>
        <time>2016-08-26T06:10:22Z</time>
      </trkpt>
      <trkpt lat="45.77548" lon="4.84262">
        <ele>164</ele>
        <time>2016-08-26T06:10:28Z</time>
      </trkpt>
      <trkpt lat="45.77557" lon="4.84268">
        <ele>168</ele>
        <time>2016-08-26T06:10:34Z</time>
      </trkpt>
      <trkpt lat="45.77572" lon="4.84272">
        <ele>167</ele>
        <time>2016-08-26T06:10:42Z</time>
      </trkpt>
      <trkpt lat="45.77584" lon="4.84281">
        <ele>172</ele>
        <time>2016-08-26T06:10:50Z</time>
      </trkpt>
      <trkpt lat="45.77589" lon="4.84286">
        <ele>173</ele>
        <time>2016-08-26T06:10:54Z</time>
      </trkpt>
      <trkpt lat="45.77597" lon="4.84293">
        <ele>172</ele>
        <time>2016-08-26T06:11:00Z</time>
      </trkpt>
      <trkpt lat="45.77605" lon="4.84295">
        <ele>171</ele>
        <time>2016-08-26T06:11:05Z</time>
      </trkpt>
      <trkpt lat="45.77614" lon="4.84303">
        <ele>173</ele>
        <time>2016-08-26T06:11:12Z</time>
      </trkpt>
      <trkpt lat="45.77623" lon="4.84308">
        <ele>174</ele>
        <time>2016-08-26T06:11:18Z</time>
      </trkpt>
      <trkpt lat="45.77632" lon="4.84316">
        <ele>169</ele>
        <time>2016-08-26T06:11:25Z</time>
      </trkpt>
      <trkpt lat="45.77637" lon="4.84323">
        <ele>170</ele>
        <time>2016-08-26T06:11:29Z</time>
      </trkpt>
      <trkpt lat="45.77646" lon="4.84332">
        <ele>170</ele>
        <time>2016-08-26T06:11:35Z</time>
      </trkpt>
      <trkpt lat="45.77655" lon="4.84338">
        <ele>175</ele>
        <time>2016-08-26T06:11:41Z</time>
      </trkpt>
      <trkpt lat="45.7767" lon="4.84351">
        <ele>171</ele>
        <time>2016-08-26T06:11:52Z</time>
      </trkpt>
      <trkpt lat="45.77671" lon="4.84351">
        <ele>172</ele>
        <time>2016-08-26T06:11:53Z</time>
      </trkpt>
      <trkpt lat="45.77683" lon="4.84359">
        <ele>170</ele>
        <time>2016-08-26T06:12:00Z</time>
      </trkpt>
      <trkpt lat="45.77692" lon="4.84363">
        <ele>170</ele>
        <time>2016-08-26T06:12:06Z</time>
      </trkpt>
      <trkpt lat="45.777" lon="4.84366">
        <ele>168</ele>
        <time>2016-08-26T06:12:11Z</time>
      </trkpt>
      <trkpt lat="45.7771" lon="4.84371">
        <ele>167</ele>
        <time>2016-08-26T06:12:17Z</time>
      </trkpt>
      <trkpt lat="45.77723" lon="4.84375">
        <ele>170</ele>
        <time>2016-08-26T06:12:25Z</time>
      </trkpt>
      <trkpt lat="45.7773" lon="4.84377">
        <ele>170</ele>
        <time>2016-08-26T06:12:29Z</time>
      </trkpt>
      <trkpt lat="45.77739" lon="4.8438">
        <ele>170</ele>
        <time>2016-08-26T06:12:35Z</time>
      </trkpt>
      <trkpt lat="45.77756" lon="4.84387">
        <ele>171</ele>
        <time>2016-08-26T06:12:45Z</time>
      </trkpt>
      <trkpt lat="45.77759" lon="4.84391">
        <ele>171</ele>
        <time>2016-08-26T06:12:47Z</time>
      </trkpt>
      <trkpt lat="45.7775" lon="4.84393">
        <ele>171</ele>
        <time>2016-08-26T06:12:53Z</time>
      </trkpt>
      <trkpt lat="45.77734" lon="4.84389">
        <ele>171</ele>
        <time>2016-08-26T06:13:02Z</time>
      </trkpt>
      <trkpt lat="45.77729" lon="4.84388">
        <ele>172</ele>
        <time>2016-08-26T06:13:05Z</time>
      </trkpt>
      <trkpt lat="45.77718" lon="4.84384">
        <ele>171</ele>
        <time>2016-08-26T06:13:11Z</time>
      </trkpt>
      <trkpt lat="45.77708" lon="4.84381">
        <ele>170</ele>
        <time>2016-08-26T06:13:17Z</time>
      </trkpt>
      <trkpt lat="45.77699" lon="4.84378">
        <ele>169</ele>
        <time>2016-08-26T06:13:23Z</time>
      </trkpt>
      <trkpt lat="45.7769" lon="4.84375">
        <ele>170</ele>
        <time>2016-08-26T06:13:29Z</time>
      </trkpt>
      <trkpt lat="45.7768" lon="4.84373">
        <ele>173</ele>
        <time>2016-08-26T06:13:35Z</time>
      </trkpt>
      <trkpt lat="45.77676" lon="4.84374">
        <ele>172</ele>
        <time>2016-08-26T06:13:42Z</time>
      </trkpt>
      <trkpt lat="45.7767" lon="4.84385">
        <ele>171</ele>
        <time>2016-08-26T06:13:48Z</time>
      </trkpt>
      <trkpt lat="45.77664" lon="4.84395">
        <ele>173</ele>
        <time>2016-08-26T06:13:53Z</time>
      </trkpt>
      <trkpt lat="45.77663" lon="4.84411">
        <ele>175</ele>
        <time>2016-08-26T06:13:59Z</time>
      </trkpt>
      <trkpt lat="45.77663" lon="4.84412">
        <ele>175</ele>
        <time>2016-08-26T06:14:05Z</time>
      </trkpt>
      <trkpt lat="45.77664" lon="4.84414">
        <ele>176</ele>
        <time>2016-08-26T06:14:12Z</time>
      </trkpt>
      <trkpt lat="45.77665" lon="4.84415">
        <ele>175</ele>
        <time>2016-08-26T06:14:17Z</time>
      </trkpt>
      <trkpt lat="45.77664" lon="4.84415">
        <ele>173</ele>
        <time>2016-08-26T06:14:23Z</time>
      </trkpt>
      <trkpt lat="45.77671" lon="4.84423">
        <ele>173</ele>
        <time>2016-08-26T06:14:29Z</time>
      </trkpt>
      <trkpt lat="45.77682" lon="4.84433">
        <ele>173</ele>
        <time>2016-08-26T06:14:36Z</time>
      </trkpt>
      <trkpt lat="45.7769" lon="4.84447">
        <ele>173</ele>
        <time>2016-08-26T06:14:44Z</time>
      </trkpt>
      <trkpt lat="45.77692" lon="4.84454">
        <ele>173</ele>
        <time>2016-08-26T06:14:47Z</time>
      </trkpt>
      <trkpt lat="45.77696" lon="4.84473">
        <ele>172</ele>
        <time>2016-08-26T06:14:55Z</time>
      </trkpt>
      <trkpt lat="45.77699" lon="4.84483">
        <ele>174</ele>
        <time>2016-08-26T06:14:59Z</time>
      </trkpt>
      <trkpt lat="45.77706" lon="4.84495">
        <ele>175</ele>
        <time>2016-08-26T06:15:05Z</time>
      </trkpt>
      <trkpt lat="45.77712" lon="4.84508">
        <ele>175</ele>
        <time>2016-08-26T06:15:11Z</time>
      </trkpt>
      <trkpt lat="45.77716" lon="4.8452">
        <ele>175</ele>
        <time>2016-08-26T06:15:17Z</time>
      </trkpt>
      <trkpt lat="45.77715" lon="4.84532">
        <ele>173</ele>
        <time>2016-08-26T06:15:23Z</time>
      </trkpt>
      <trkpt lat="45.77704" lon="4.84545">
        <ele>176</ele>
        <time>2016-08-26T06:15:30Z</time>
      </trkpt>
      <trkpt lat="45.77696" lon="4.84555">
        <ele>174</ele>
        <time>2016-08-26T06:15:38Z</time>
      </trkpt>
      <trkpt lat="45.77692" lon="4.84559">
        <ele>174</ele>
        <time>2016-08-26T06:15:41Z</time>
      </trkpt>
      <trkpt lat="45.77683" lon="4.84572">
        <ele>176</ele>
        <time>2016-08-26T06:15:47Z</time>
      </trkpt>
      <trkpt lat="45.77673" lon="4.8459">
        <ele>173</ele>
        <time>2016-08-26T06:15:57Z</time>
      </trkpt>
      <trkpt lat="45.77671" lon="4.84593">
        <ele>172</ele>
        <time>2016-08-26T06:15:59Z</time>
      </trkpt>
      <trkpt lat="45.77666" lon="4.84606">
        <ele>175</ele>
        <time>2016-08-26T06:16:07Z</time>
      </trkpt>
      <trkpt lat="45.77661" lon="4.84613">
        <ele>172</ele>
        <time>2016-08-26T06:16:11Z</time>
      </trkpt>
      <trkpt lat="45.7765" lon="4.84629">
        <ele>171</ele>
        <time>2016-08-26T06:16:20Z</time>
      </trkpt>
      <trkpt lat="45.7764" lon="4.84645">
        <ele>171</ele>
        <time>2016-08-26T06:16:28Z</time>
      </trkpt>
      <trkpt lat="45.77637" lon="4.84649">
        <ele>171</ele>
        <time>2016-08-26T06:16:30Z</time>
      </trkpt>
      <trkpt lat="45.77632" lon="4.8466">
        <ele>173</ele>
        <time>2016-08-26T06:16:35Z</time>
      </trkpt>
      <trkpt lat="45.77626" lon="4.84672">
        <ele>169</ele>
        <time>2016-08-26T06:16:41Z</time>
      </trkpt>
      <trkpt lat="45.7762" lon="4.84689">
        <ele>173</ele>
        <time>2016-08-26T06:16:50Z</time>
      </trkpt>
      <trkpt lat="45.77616" lon="4.8471">
        <ele>174</ele>
        <time>2016-08-26T06:16:58Z</time>
      </trkpt>
      <trkpt lat="45.77614" lon="4.84713">
        <ele>172</ele>
        <time>2016-08-26T06:17:00Z</time>
      </trkpt>
      <trkpt lat="45.77604" lon="4.84726">
        <ele>175</ele>
        <time>2016-08-26T06:17:08Z</time>
      </trkpt>
      <trkpt lat="45.776" lon="4.84729">
        <ele>173</ele>
        <time>2016-08-26T06:17:11Z</time>
      </trkpt>
      <trkpt lat="45.77595" lon="4.84743">
        <ele>171</ele>
        <time>2016-08-26T06:17:18Z</time>
      </trkpt>
      <trkpt lat="45.7759" lon="4.84754">
        <ele>171</ele>
        <time>2016-08-26T06:17:23Z</time>
      </trkpt>
      <trkpt lat="45.77585" lon="4.8477">
        <ele>172</ele>
        <time>2016-08-26T06:17:30Z</time>
      </trkpt>
      <trkpt lat="45.77581" lon="4.84788">
        <ele>174</ele>
        <time>2016-08-26T06:17:38Z</time>
      </trkpt>
      <trkpt lat="45.77575" lon="4.84798">
        <ele>172</ele>
        <time>2016-08-26T06:17:44Z</time>
      </trkpt>
      <trkpt lat="45.77572" lon="4.84803">
        <ele>171</ele>
        <time>2016-08-26T06:17:47Z</time>
      </trkpt>
      <trkpt lat="45.77564" lon="4.84829">
        <ele>173</ele>
        <time>2016-08-26T06:17:58Z</time>
      </trkpt>
      <trkpt lat="45.77563" lon="4.84831">
        <ele>171</ele>
        <time>2016-08-26T06:17:59Z</time>
      </trkpt>
      <trkpt lat="45.77559" lon="4.84844">
        <ele>171</ele>
        <time>2016-08-26T06:18:05Z</time>
      </trkpt>
      <trkpt lat="45.77554" lon="4.84859">
        <ele>172</ele>
        <time>2016-08-26T06:18:11Z</time>
      </trkpt>
      <trkpt lat="45.77548" lon="4.84879">
        <ele>174</ele>
        <time>2016-08-26T06:18:19Z</time>
      </trkpt>
      <trkpt lat="45.77546" lon="4.84888">
        <ele>172</ele>
        <time>2016-08-26T06:18:23Z</time>
      </trkpt>
      <trkpt lat="45.77541" lon="4.84905">
        <ele>172</ele>
        <time>2016-08-26T06:18:31Z</time>
      </trkpt>
      <trkpt lat="45.77538" lon="4.84913">
        <ele>172</ele>
        <time>2016-08-26T06:18:35Z</time>
      </trkpt>
      <trkpt lat="45.77532" lon="4.84925">
        <ele>172</ele>
        <time>2016-08-26T06:18:41Z</time>
      </trkpt>
      <trkpt lat="45.77523" lon="4.84944">
        <ele>172</ele>
        <time>2016-08-26T06:18:50Z</time>
      </trkpt>
      <trkpt lat="45.7752" lon="4.8495">
        <ele>175</ele>
        <time>2016-08-26T06:18:53Z</time>
      </trkpt>
      <trkpt lat="45.77513" lon="4.84963">
        <ele>171</ele>
        <time>2016-08-26T06:19:00Z</time>
      </trkpt>
      <trkpt lat="45.77507" lon="4.84976">
        <ele>171</ele>
        <time>2016-08-26T06:19:07Z</time>
      </trkpt>
      <trkpt lat="45.77503" lon="4.84984">
        <ele>169</ele>
        <time>2016-08-26T06:19:11Z</time>
      </trkpt>
      <trkpt lat="45.77494" lon="4.85003">
        <ele>169</ele>
        <time>2016-08-26T06:19:20Z</time>
      </trkpt>
      <trkpt lat="45.77491" lon="4.85009">
        <ele>170</ele>
        <time>2016-08-26T06:19:23Z</time>
      </trkpt>
      <trkpt lat="45.77486" lon="4.85021">
        <ele>169</ele>
        <time>2016-08-26T06:19:29Z</time>
      </trkpt>
      <trkpt lat="45.7748" lon="4.85036">
        <ele>167</ele>
        <time>2016-08-26T06:19:36Z</time>
      </trkpt>
      <trkpt lat="45.77473" lon="4.85052">
        <ele>168</ele>
        <time>2016-08-26T06:19:44Z</time>
      </trkpt>
      <trkpt lat="45.77468" lon="4.85062">
        <ele>168</ele>
        <time>2016-08-26T06:19:49Z</time>
      </trkpt>
      <trkpt lat="45.77464" lon="4.8507">
        <ele>169</ele>
        <time>2016-08-26T06:19:53Z</time>
      </trkpt>
      <trkpt lat="45.77458" lon="4.85083">
        <ele>169</ele>
        <time>2016-08-26T06:19:59Z</time>
      </trkpt>
      <trkpt lat="45.77452" lon="4.85095">
        <ele>169</ele>
        <time>2016-08-26T06:20:05Z</time>
      </trkpt>
      <trkpt lat="45.77443" lon="4.85111">
        <ele>171</ele>
        <time>2016-08-26T06:20:14Z</time>
      </trkpt>
      <trkpt lat="45.7744" lon="4.85117">
        <ele>173</ele>
        <time>2016-08-26T06:20:17Z</time>
      </trkpt>
      <trkpt lat="45.77434" lon="4.8513">
        <ele>171</ele>
        <time>2016-08-26T06:20:23Z</time>
      </trkpt>
      <trkpt lat="45.77424" lon="4.85142">
        <ele>170</ele>
        <time>2016-08-26T06:20:31Z</time>
      </trkpt>
      <trkpt lat="45.77418" lon="4.85147">
        <ele>170</ele>
        <time>2016-08-26T06:20:35Z</time>
      </trkpt>
      <trkpt lat="45.77408" lon="4.85149">
        <ele>172</ele>
        <time>2016-08-26T06:20:41Z</time>
      </trkpt>
      <trkpt lat="45.77396" lon="4.85149">
        <ele>172</ele>
        <time>2016-08-26T06:20:49Z</time>
      </trkpt>
      <trkpt lat="45.77389" lon="4.85151">
        <ele>172</ele>
        <time>2016-08-26T06:20:53Z</time>
      </trkpt>
      <trkpt lat="45.77379" lon="4.85152">
        <ele>170</ele>
        <time>2016-08-26T06:20:59Z</time>
      </trkpt>
      <trkpt lat="45.77371" lon="4.8515">
        <ele>168</ele>
        <time>2016-08-26T06:21:05Z</time>
      </trkpt>
      <trkpt lat="45.77363" lon="4.85158">
        <ele>167</ele>
        <time>2016-08-26T06:21:11Z</time>
      </trkpt>
      <trkpt lat="45.77354" lon="4.85181">
        <ele>171</ele>
        <time>2016-08-26T06:21:21Z</time>
      </trkpt>
      <trkpt lat="45.7735" lon="4.85188">
        <ele>171</ele>
        <time>2016-08-26T06:21:24Z</time>
      </trkpt>
      <trkpt lat="45.77346" lon="4.85208">
        <ele>171</ele>
        <time>2016-08-26T06:21:32Z</time>
      </trkpt>
      <trkpt lat="45.77348" lon="4.85222">
        <ele>172</ele>
        <time>2016-08-26T06:21:37Z</time>
      </trkpt>
      <trkpt lat="45.77349" lon="4.85232">
        <ele>173</ele>
        <time>2016-08-26T06:21:41Z</time>
      </trkpt>
      <trkpt lat="45.77352" lon="4.85247">
        <ele>170</ele>
        <time>2016-08-26T06:21:48Z</time>
      </trkpt>
      <trkpt lat="45.7735" lon="4.85259">
        <ele>171</ele>
        <time>2016-08-26T06:21:53Z</time>
      </trkpt>
      <trkpt lat="45.77343" lon="4.85279">
        <ele>173</ele>
        <time>2016-08-26T06:22:03Z</time>
      </trkpt>
      <trkpt lat="45.7734" lon="4.85287">
        <ele>172</ele>
        <time>2016-08-26T06:22:07Z</time>
      </trkpt>
      <trkpt lat="45.77339" lon="4.85296">
        <ele>172</ele>
        <time>2016-08-26T06:22:11Z</time>
      </trkpt>
      <trkpt lat="45.77334" lon="4.8531">
        <ele>169</ele>
        <time>2016-08-26T06:22:18Z</time>
      </trkpt>
      <trkpt lat="45.77327" lon="4.85328">
        <ele>165</ele>
        <time>2016-08-26T06:22:28Z</time>
      </trkpt>
      <trkpt lat="45.77326" lon="4.8533">
        <ele>166</ele>
        <time>2016-08-26T06:22:29Z</time>
      </trkpt>
      <trkpt lat="45.77321" lon="4.85345">
        <ele>169</ele>
        <time>2016-08-26T06:22:35Z</time>
      </trkpt>
      <trkpt lat="45.77314" lon="4.85358">
        <ele>171</ele>
        <time>2016-08-26T06:22:41Z</time>
      </trkpt>
      <trkpt lat="45.77309" lon="4.85371">
        <ele>170</ele>
        <time>2016-08-26T06:22:47Z</time>
      </trkpt>
      <trkpt lat="45.77305" lon="4.85384">
        <ele>175</ele>
        <time>2016-08-26T06:22:53Z</time>
      </trkpt>
      <trkpt lat="45.77296" lon="4.85408">
        <ele>171</ele>
        <time>2016-08-26T06:23:04Z</time>
      </trkpt>
      <trkpt lat="45.77295" lon="4.8541">
        <ele>171</ele>
        <time>2016-08-26T06:23:05Z</time>
      </trkpt>
      <trkpt lat="45.77304" lon="4.85426">
        <ele>171</ele>
        <time>2016-08-26T06:23:14Z</time>
      </trkpt>
      <trkpt lat="45.77314" lon="4.85437">
        <ele>171</ele>
        <time>2016-08-26T06:23:21Z</time>
      </trkpt>
      <trkpt lat="45.77316" lon="4.8544">
        <ele>171</ele>
        <time>2016-08-26T06:23:23Z</time>
      </trkpt>
      <trkpt lat="45.77324" lon="4.85451">
        <ele>170</ele>
        <time>2016-08-26T06:23:30Z</time>
      </trkpt>
      <trkpt lat="45.7733" lon="4.85459">
        <ele>168</ele>
        <time>2016-08-26T06:23:35Z</time>
      </trkpt>
      <trkpt lat="45.77338" lon="4.85468">
        <ele>168</ele>
        <time>2016-08-26T06:23:41Z</time>
      </trkpt>
      <trkpt lat="45.77345" lon="4.85477">
        <ele>168</ele>
        <time>2016-08-26T06:23:47Z</time>
      </trkpt>
      <trkpt lat="45.77354" lon="4.85498">
        <ele>168</ele>
        <time>2016-08-26T06:23:57Z</time>
      </trkpt>
      <trkpt lat="45.77353" lon="4.85516">
        <ele>168</ele>
        <time>2016-08-26T06:24:04Z</time>
      </trkpt>
      <trkpt lat="45.77353" lon="4.85519">
        <ele>169</ele>
        <time>2016-08-26T06:24:05Z</time>
      </trkpt>
      <trkpt lat="45.77352" lon="4.8554">
        <ele>172</ele>
        <time>2016-08-26T06:24:15Z</time>
      </trkpt>
      <trkpt lat="45.77355" lon="4.8555">
        <ele>170</ele>
        <time>2016-08-26T06:24:19Z</time>
      </trkpt>
      <trkpt lat="45.77357" lon="4.8556">
        <ele>169</ele>
        <time>2016-08-26T06:24:23Z</time>
      </trkpt>
      <trkpt lat="45.7736" lon="4.85577">
        <ele>169</ele>
        <time>2016-08-26T06:24:30Z</time>
      </trkpt>
      <trkpt lat="45.7736" lon="4.85589">
        <ele>170</ele>
        <time>2016-08-26T06:24:35Z</time>
      </trkpt>
      <trkpt lat="45.7736" lon="4.85603">
        <ele>169</ele>
        <time>2016-08-26T06:24:42Z</time>
      </trkpt>
      <trkpt lat="45.77361" lon="4.85617">
        <ele>169</ele>
        <time>2016-08-26T06:24:47Z</time>
      </trkpt>
      <trkpt lat="45.77364" lon="4.8563">
        <ele>169</ele>
        <time>2016-08-26T06:24:53Z</time>
      </trkpt>
      <trkpt lat="45.77371" lon="4.85639">
        <ele>169</ele>
        <time>2016-08-26T06:24:59Z</time>
      </trkpt>
      <trkpt lat="45.77384" lon="4.85646">
        <ele>167</ele>
        <time>2016-08-26T06:25:07Z</time>
      </trkpt>
      <trkpt lat="45.77388" lon="4.85653">
        <ele>168</ele>
        <time>2016-08-26T06:25:11Z</time>
      </trkpt>
      <trkpt lat="45.77387" lon="4.85666">
        <ele>167</ele>
        <time>2016-08-26T06:25:17Z</time>
      </trkpt>
      <trkpt lat="45.77386" lon="4.85681">
        <ele>167</ele>
        <time>2016-08-26T06:25:23Z</time>
      </trkpt>
      <trkpt lat="45.77386" lon="4.85705">
        <ele>172</ele>
        <time>2016-08-26T06:25:33Z</time>
      </trkpt>
      <trkpt lat="45.77388" lon="4.85708">
        <ele>171</ele>
        <time>2016-08-26T06:25:35Z</time>
      </trkpt>
      <trkpt lat="45.77395" lon="4.85731">
        <ele>170</ele>
        <time>2016-08-26T06:25:45Z</time>
      </trkpt>
      <trkpt lat="45.77396" lon="4.85738">
        <ele>167</ele>
        <time>2016-08-26T06:25:48Z</time>
      </trkpt>
      <trkpt lat="45.77398" lon="4.85744">
        <ele>171</ele>
        <time>2016-08-26T06:25:53Z</time>
      </trkpt>
      <trkpt lat="45.77404" lon="4.8576">
        <ele>170</ele>
        <time>2016-08-26T06:26:00Z</time>
      </trkpt>
      <trkpt lat="45.77407" lon="4.85771">
        <ele>172</ele>
        <time>2016-08-26T06:26:05Z</time>
      </trkpt>
      <trkpt lat="45.77418" lon="4.85784">
        <ele>173</ele>
        <time>2016-08-26T06:26:13Z</time>
      </trkpt>
      <trkpt lat="45.77434" lon="4.85795">
        <ele>170</ele>
        <time>2016-08-26T06:26:22Z</time>
      </trkpt>
      <trkpt lat="45.77439" lon="4.85799">
        <ele>168</ele>
        <time>2016-08-26T06:26:25Z</time>
      </trkpt>
      <trkpt lat="45.77447" lon="4.85807">
        <ele>167</ele>
        <time>2016-08-26T06:26:33Z</time>
      </trkpt>
      <trkpt lat="45.77451" lon="4.8581">
        <ele>168</ele>
        <time>2016-08-26T06:26:36Z</time>
      </trkpt>
      <trkpt lat="45.77465" lon="4.85815">
        <ele>173</ele>
        <time>2016-08-26T06:26:45Z</time>
      </trkpt>
      <trkpt lat="45.7748" lon="4.8582">
        <ele>174</ele>
        <time>2016-08-26T06:26:54Z</time>
      </trkpt>
      <trkpt lat="45.77482" lon="4.8582">
        <ele>175</ele>
        <time>2016-08-26T06:26:55Z</time>
      </trkpt>
      <trkpt lat="45.77493" lon="4.85823">
        <ele>175</ele>
        <time>2016-08-26T06:27:01Z</time>
      </trkpt>
      <trkpt lat="45.77507" lon="4.85828">
        <ele>174</ele>
        <time>2016-08-26T06:27:09Z</time>
      </trkpt>
      <trkpt lat="45.77517" lon="4.85831">
        <ele>176</ele>
        <time>2016-08-26T06:27:15Z</time>
      </trkpt>
      <trkpt lat="45.77532" lon="4.85836">
        <ele>171</ele>
        <time>2016-08-26T06:27:24Z</time>
      </trkpt>
      <trkpt lat="45.77534" lon="4.85836">
        <ele>172</ele>
        <time>2016-08-26T06:27:25Z</time>
      </trkpt>
      <trkpt lat="45.77544" lon="4.85839">
        <ele>173</ele>
        <time>2016-08-26T06:27:31Z</time>
      </trkpt>
      <trkpt lat="45.77555" lon="4.85841">
        <ele>172</ele>
        <time>2016-08-26T06:27:38Z</time>
      </trkpt>
      <trkpt lat="45.77567" lon="4.8584">
        <ele>177</ele>
        <time>2016-08-26T06:27:45Z</time>
      </trkpt>
      <trkpt lat="45.77581" lon="4.8584">
        <ele>175</ele>
        <time>2016-08-26T06:27:53Z</time>
      </trkpt>
      <trkpt lat="45.77592" lon="4.8584">
        <ele>171</ele>
        <time>2016-08-26T06:28:00Z</time>
      </trkpt>
      <trkpt lat="45.776" lon="4.8584">
        <ele>171</ele>
        <time>2016-08-26T06:28:05Z</time>
      </trkpt>
      <trkpt lat="45.77608" lon="4.85843">
        <ele>169</ele>
        <time>2016-08-26T06:28:09Z</time>
      </trkpt>
      <trkpt lat="45.77621" lon="4.85846">
        <ele>166</ele>
        <time>2016-08-26T06:28:17Z</time>
      </trkpt>
      <trkpt lat="45.77623" lon="4.85844">
        <ele>169</ele>
        <time>2016-08-26T06:28:19Z</time>
      </trkpt>
      <trkpt lat="45.77633" lon="4.8584">
        <ele>168</ele>
        <time>2016-08-26T06:28:25Z</time>
      </trkpt>
      <trkpt lat="45.77652" lon="4.85833">
        <ele>166</ele>
        <time>2016-08-26T06:28:36Z</time>
      </trkpt>
      <trkpt lat="45.77658" lon="4.85835">
        <ele>166</ele>
        <time>2016-08-26T06:28:42Z</time>
      </trkpt>
      <trkpt lat="45.77659" lon="4.85835">
        <ele>164</ele>
        <time>2016-08-26T06:28:43Z</time>
      </trkpt>
      <trkpt lat="45.77676" lon="4.85833">
        <ele>162</ele>
        <time>2016-08-26T06:28:51Z</time>
      </trkpt>
      <trkpt lat="45.77684" lon="4.85832">
        <ele>163</ele>
        <time>2016-08-26T06:28:55Z</time>
      </trkpt>
      <trkpt lat="45.77694" lon="4.85834">
        <ele>161</ele>
        <time>2016-08-26T06:29:01Z</time>
      </trkpt>
      <trkpt lat="45.77708" lon="4.85837">
        <ele>169</ele>
        <time>2016-08-26T06:29:10Z</time>
      </trkpt>
      <trkpt lat="45.77714" lon="4.85839">
        <ele>168</ele>
        <time>2016-08-26T06:29:14Z</time>
      </trkpt>
      <trkpt lat="45.77726" lon="4.85845">
        <ele>168</ele>
        <time>2016-08-26T06:29:21Z</time>
      </trkpt>
      <trkpt lat="45.77735" lon="4.85849">
        <ele>165</ele>
        <time>2016-08-26T06:29:26Z</time>
      </trkpt>
      <trkpt lat="45.77744" lon="4.85851">
        <ele>161</ele>
        <time>2016-08-26T06:29:31Z</time>
      </trkpt>
      <trkpt lat="45.77753" lon="4.85854">
        <ele>164</ele>
        <time>2016-08-26T06:29:37Z</time>
      </trkpt>
      <trkpt lat="45.7777" lon="4.85848">
        <ele>166</ele>
        <time>2016-08-26T06:29:48Z</time>
      </trkpt>
      <trkpt lat="45.77771" lon="4.85847">
        <ele>166</ele>
        <time>2016-08-26T06:29:49Z</time>
      </trkpt>
      <trkpt lat="45.77778" lon="4.85837">
        <ele>170</ele>
        <time>2016-08-26T06:29:55Z</time>
      </trkpt>
      <trkpt lat="45.77796" lon="4.85837">
        <ele>170</ele>
        <time>2016-08-26T06:30:05Z</time>
      </trkpt>
      <trkpt lat="45.77803" lon="4.85839">
        <ele>170</ele>
        <time>2016-08-26T06:30:09Z</time>
      </trkpt>
      <trkpt lat="45.7781" lon="4.85843">
        <ele>169</ele>
        <time>2016-08-26T06:30:13Z</time>
      </trkpt>
      <trkpt lat="45.77819" lon="4.85846">
        <ele>165</ele>
        <time>2016-08-26T06:30:19Z</time>
      </trkpt>
      <trkpt lat="45.77829" lon="4.85846">
        <ele>169</ele>
        <time>2016-08-26T06:30:25Z</time>
      </trkpt>
      <trkpt lat="45.7784" lon="4.85845">
        <ele>168</ele>
        <time>2016-08-26T06:30:33Z</time>
      </trkpt>
      <trkpt lat="45.77846" lon="4.85846">
        <ele>170</ele>
        <time>2016-08-26T06:30:38Z</time>
      </trkpt>
      <trkpt lat="45.77853" lon="4.85848">
        <ele>171</ele>
        <time>2016-08-26T06:30:43Z</time>
      </trkpt>
      <trkpt lat="45.77862" lon="4.85852">
        <ele>171</ele>
        <time>2016-08-26T06:30:49Z</time>
      </trkpt>
      <trkpt lat="45.77872" lon="4.85857">
        <ele>172</ele>
        <time>2016-08-26T06:30:55Z</time>
      </trkpt>
      <trkpt lat="45.77884" lon="4.85859">
        <ele>168</ele>
        <time>2016-08-26T06:31:01Z</time>
      </trkpt>
      <trkpt lat="45.77897" lon="4.85863">
        <ele>172</ele>
        <time>2016-08-26T06:31:09Z</time>
      </trkpt>
      <trkpt lat="45.77904" lon="4.85865">
        <ele>169</ele>
        <time>2016-08-26T06:31:13Z</time>
      </trkpt>
      <trkpt lat="45.77917" lon="4.85864">
        <ele>171</ele>
        <time>2016-08-26T06:31:21Z</time>
      </trkpt>
      <trkpt lat="45.77924" lon="4.85863">
        <ele>169</ele>
        <time>2016-08-26T06:31:25Z</time>
      </trkpt>
      <trkpt lat="45.77935" lon="4.85864">
        <ele>168</ele>
        <time>2016-08-26T06:31:31Z</time>
      </trkpt>
      <trkpt lat="45.77954" lon="4.85864">
        <ele>166</ele>
        <time>2016-08-26T06:31:42Z</time>
      </trkpt>
      <trkpt lat="45.7796" lon="4.85866">
        <ele>170</ele>
        <time>2016-08-26T06:31:46Z</time>
      </trkpt>
      <trkpt lat="45.77969" lon="4.85866">
        <ele>168</ele>
        <time>2016-08-26T06:31:52Z</time>
      </trkpt>
      <trkpt lat="45.77974" lon="4.85867">
        <ele>168</ele>
        <time>2016-08-26T06:31:55Z</time>
      </trkpt>
      <trkpt lat="45.77983" lon="4.85869">
        <ele>167</ele>
        <time>2016-08-26T06:32:01Z</time>
      </trkpt>
      <trkpt lat="45.77994" lon="4.85869">
        <ele>167</ele>
        <time>2016-08-26T06:32:08Z</time>
      </trkpt>
      <trkpt lat="45.78001" lon="4.8587">
        <ele>165</ele>
        <time>2016-08-26T06:32:13Z</time>
      </trkpt>
      <trkpt lat="45.78009" lon="4.85872">
        <ele>164</ele>
        <time>2016-08-26T06:32:19Z</time>
      </trkpt>
      <trkpt lat="45.78019" lon="4.85872">
        <ele>165</ele>
        <time>2016-08-26T06:32:25Z</time>
      </trkpt>
      <trkpt lat="45.78031" lon="4.85871">
        <ele>165</ele>
        <time>2016-08-26T06:32:32Z</time>
      </trkpt>
      <trkpt lat="45.78041" lon="4.85872">
        <ele>164</ele>
        <time>2016-08-26T06:32:38Z</time>
      </trkpt>
      <trkpt lat="45.78049" lon="4.85872">
        <ele>165</ele>
        <time>2016-08-26T06:32:43Z</time>
      </trkpt>
      <trkpt lat="45.78059" lon="4.8587">
        <ele>166</ele>
        <time>2016-08-26T06:32:49Z</time>
      </trkpt>
      <trkpt lat="45.78074" lon="4.8587">
        <ele>165</ele>
        <time>2016-08-26T06:32:58Z</time>
      </trkpt>
      <trkpt lat="45.78087" lon="4.85869">
        <ele>166</ele>
        <time>2016-08-26T06:33:06Z</time>
      </trkpt>
      <trkpt lat="45.78088" lon="4.85869">
        <ele>166</ele>
        <time>2016-08-26T06:33:07Z</time>
      </trkpt>
      <trkpt lat="45.78099" lon="4.85869">
        <ele>165</ele>
        <time>2016-08-26T06:33:13Z</time>
      </trkpt>
      <trkpt lat="45.78109" lon="4.85868">
        <ele>164</ele>
        <time>2016-08-26T06:33:19Z</time>
      </trkpt>
      <trkpt lat="45.78118" lon="4.85867">
        <ele>165</ele>
        <time>2016-08-26T06:33:25Z</time>
      </trkpt>
      <trkpt lat="45.78128" lon="4.85865">
        <ele>166</ele>
        <time>2016-08-26T06:33:31Z</time>
      </trkpt>
      <trkpt lat="45.78138" lon="4.85865">
        <ele>166</ele>
        <time>2016-08-26T06:33:37Z</time>
      </trkpt>
      <trkpt lat="45.78153" lon="4.85861">
        <ele>164</ele>
        <time>2016-08-26T06:33:46Z</time>
      </trkpt>
      <trkpt lat="45.78158" lon="4.8586">
        <ele>168</ele>
        <time>2016-08-26T06:33:49Z</time>
      </trkpt>
      <trkpt lat="45.78168" lon="4.85859">
        <ele>167</ele>
        <time>2016-08-26T06:33:55Z</time>
      </trkpt>
      <trkpt lat="45.78178" lon="4.85859">
        <ele>167</ele>
        <time>2016-08-26T06:34:01Z</time>
      </trkpt>
      <trkpt lat="45.78187" lon="4.85857">
        <ele>168</ele>
        <time>2016-08-26T06:34:07Z</time>
      </trkpt>
      <trkpt lat="45.78197" lon="4.85857">
        <ele>168</ele>
        <time>2016-08-26T06:34:13Z</time>
      </trkpt>
      <trkpt lat="45.78203" lon="4.85868">
        <ele>168</ele>
        <time>2016-08-26T06:34:19Z</time>
      </trkpt>
      <trkpt lat="45.78217" lon="4.85875">
        <ele>168</ele>
        <time>2016-08-26T06:34:28Z</time>
      </trkpt>
      <trkpt lat="45.78224" lon="4.85878">
        <ele>167</ele>
        <time>2016-08-26T06:34:33Z</time>
      </trkpt>
      <trkpt lat="45.78234" lon="4.8588">
        <ele>167</ele>
        <time>2016-08-26T06:34:39Z</time>
      </trkpt>
      <trkpt lat="45.78247" lon="4.85884">
        <ele>166</ele>
        <time>2016-08-26T06:34:47Z</time>
      </trkpt>
      <trkpt lat="45.78251" lon="4.85882">
        <ele>166</ele>
        <time>2016-08-26T06:34:50Z</time>
      </trkpt>
      <trkpt lat="45.78263" lon="4.85878">
        <ele>167</ele>
        <time>2016-08-26T06:34:57Z</time>
      </trkpt>
      <trkpt lat="45.78269" lon="4.85881">
        <ele>163</ele>
        <time>2016-08-26T06:35:01Z</time>
      </trkpt>
      <trkpt lat="45.78282" lon="4.85882">
        <ele>163</ele>
        <time>2016-08-26T06:35:08Z</time>
      </trkpt>
      <trkpt lat="45.78291" lon="4.85882">
        <ele>162</ele>
        <time>2016-08-26T06:35:13Z</time>
      </trkpt>
      <trkpt lat="45.78301" lon="4.8588">
        <ele>163</ele>
        <time>2016-08-26T06:35:19Z</time>
      </trkpt>
      <trkpt lat="45.78312" lon="4.85879">
        <ele>164</ele>
        <time>2016-08-26T06:35:25Z</time>
      </trkpt>
      <trkpt lat="45.78322" lon="4.85875">
        <ele>163</ele>
        <time>2016-08-26T06:35:31Z</time>
      </trkpt>
      <trkpt lat="45.78331" lon="4.85874">
        <ele>164</ele>
        <time>2016-08-26T06:35:37Z</time>
      </trkpt>
      <trkpt lat="45.78346" lon="4.85874">
        <ele>169</ele>
        <time>2016-08-26T06:35:48Z</time>
      </trkpt>
      <trkpt lat="45.78348" lon="4.85874">
        <ele>169</ele>
        <time>2016-08-26T06:35:49Z</time>
      </trkpt>
      <trkpt lat="45.7836" lon="4.85876">
        <ele>167</ele>
        <time>2016-08-26T06:35:55Z</time>
      </trkpt>
      <trkpt lat="45.78371" lon="4.8588">
        <ele>165</ele>
        <time>2016-08-26T06:36:01Z</time>
      </trkpt>
      <trkpt lat="45.78388" lon="4.85886">
        <ele>170</ele>
        <time>2016-08-26T06:36:11Z</time>
      </trkpt>
      <trkpt lat="45.78391" lon="4.85886">
        <ele>170</ele>
        <time>2016-08-26T06:36:13Z</time>
      </trkpt>
      <trkpt lat="45.78402" lon="4.85888">
        <ele>163</ele>
        <time>2016-08-26T06:36:19Z</time>
      </trkpt>
      <trkpt lat="45.78418" lon="4.85893">
        <ele>166</ele>
        <time>2016-08-26T06:36:29Z</time>
      </trkpt>
      <trkpt lat="45.78423" lon="4.85894">
        <ele>168</ele>
        <time>2016-08-26T06:36:32Z</time>
      </trkpt>
      <trkpt lat="45.78437" lon="4.85898">
        <ele>167</ele>
        <time>2016-08-26T06:36:41Z</time>
      </trkpt>
      <trkpt lat="45.78443" lon="4.85899">
        <ele>169</ele>
        <time>2016-08-26T06:36:44Z</time>
      </trkpt>
      <trkpt lat="45.78453" lon="4.85897">
        <ele>169</ele>
        <time>2016-08-26T06:36:51Z</time>
      </trkpt>
      <trkpt lat="45.78455" lon="4.85877">
        <ele>171</ele>
        <time>2016-08-26T06:36:59Z</time>
      </trkpt>
      <trkpt lat="45.78455" lon="4.85872">
        <ele>172</ele>
        <time>2016-08-26T06:37:01Z</time>
      </trkpt>
      <trkpt lat="45.78456" lon="4.85847">
        <ele>170</ele>
        <time>2016-08-26T06:37:11Z</time>
      </trkpt>
      <trkpt lat="45.78457" lon="4.85841">
        <ele>169</ele>
        <time>2016-08-26T06:37:14Z</time>
      </trkpt>
      <trkpt lat="45.78459" lon="4.85831">
        <ele>169</ele>
        <time>2016-08-26T06:37:19Z</time>
      </trkpt>
      <trkpt lat="45.78459" lon="4.85818">
        <ele>172</ele>
        <time>2016-08-26T06:37:25Z</time>
      </trkpt>
      <trkpt lat="45.78456" lon="4.85808">
        <ele>174</ele>
        <time>2016-08-26T06:37:31Z</time>
      </trkpt>
      <trkpt lat="45.78459" lon="4.85786">
        <ele>173</ele>
        <time>2016-08-26T06:37:41Z</time>
      </trkpt>
      <trkpt lat="45.78457" lon="4.85777">
        <ele>174</ele>
        <time>2016-08-26T06:37:44Z</time>
      </trkpt>
      <trkpt lat="45.78451" lon="4.85758">
        <ele>173</ele>
        <time>2016-08-26T06:37:51Z</time>
      </trkpt>
      <trkpt lat="45.78449" lon="4.85747">
        <ele>174</ele>
        <time>2016-08-26T06:37:55Z</time>
      </trkpt>
      <trkpt lat="45.78446" lon="4.85732">
        <ele>171</ele>
        <time>2016-08-26T06:38:01Z</time>
      </trkpt>
      <trkpt lat="45.78442" lon="4.85722">
        <ele>176</ele>
        <time>2016-08-26T06:38:07Z</time>
      </trkpt>
      <trkpt lat="45.78433" lon="4.85698">
        <ele>175</ele>
        <time>2016-08-26T06:38:18Z</time>
      </trkpt>
      <trkpt lat="45.7843" lon="4.85685">
        <ele>174</ele>
        <time>2016-08-26T06:38:23Z</time>
      </trkpt>
      <trkpt lat="45.7843" lon="4.8568">
        <ele>174</ele>
        <time>2016-08-26T06:38:25Z</time>
      </trkpt>
      <trkpt lat="45.78428" lon="4.85666">
        <ele>171</ele>
        <time>2016-08-26T06:38:31Z</time>
      </trkpt>
      <trkpt lat="45.78423" lon="4.85653">
        <ele>172</ele>
        <time>2016-08-26T06:38:37Z</time>
      </trkpt>
      <trkpt lat="45.78416" lon="4.85641">
        <ele>175</ele>
        <time>2016-08-26T06:38:43Z</time>
      </trkpt>
      <trkpt lat="45.7841" lon="4.85623">
        <ele>172</ele>
        <time>2016-08-26T06:38:52Z</time>
      </trkpt>
      <trkpt lat="45.78417" lon="4.85609">
        <ele>170</ele>
        <time>2016-08-26T06:38:59Z</time>
      </trkpt>
      <trkpt lat="45.78419" lon="4.85605">
        <ele>170</ele>
        <time>2016-08-26T06:39:01Z</time>
      </trkpt>
      <trkpt lat="45.78426" lon="4.85594">
        <ele>172</ele>
        <time>2016-08-26T06:39:07Z</time>
      </trkpt>
      <trkpt lat="45.78432" lon="4.85583">
        <ele>170</ele>
        <time>2016-08-26T06:39:13Z</time>
      </trkpt>
      <trkpt lat="45.78438" lon="4.85573">
        <ele>169</ele>
        <time>2016-08-26T06:39:19Z</time>
      </trkpt>
      <trkpt lat="45.78439" lon="4.85558">
        <ele>174</ele>
        <time>2016-08-26T06:39:25Z</time>
      </trkpt>
      <trkpt lat="45.78437" lon="4.85542">
        <ele>174</ele>
        <time>2016-08-26T06:39:31Z</time>
      </trkpt>
      <trkpt lat="45.78435" lon="4.85521">
        <ele>173</ele>
        <time>2016-08-26T06:39:40Z</time>
      </trkpt>
      <trkpt lat="45.78434" lon="4.85514">
        <ele>175</ele>
        <time>2016-08-26T06:39:43Z</time>
      </trkpt>
      <trkpt lat="45.7843" lon="4.855">
        <ele>174</ele>
        <time>2016-08-26T06:39:49Z</time>
      </trkpt>
      <trkpt lat="45.78427" lon="4.85481">
        <ele>169</ele>
        <time>2016-08-26T06:39:57Z</time>
      </trkpt>
      <trkpt lat="45.78426" lon="4.85472">
        <ele>171</ele>
        <time>2016-08-26T06:40:01Z</time>
      </trkpt>
      <trkpt lat="45.78423" lon="4.85461">
        <ele>164</ele>
        <time>2016-08-26T06:40:07Z</time>
      </trkpt>
      <trkpt lat="45.78418" lon="4.8545">
        <ele>165</ele>
        <time>2016-08-26T06:40:13Z</time>
      </trkpt>
      <trkpt lat="45.78417" lon="4.85437">
        <ele>164</ele>
        <time>2016-08-26T06:40:19Z</time>
      </trkpt>
      <trkpt lat="45.78413" lon="4.85422">
        <ele>169</ele>
        <time>2016-08-26T06:40:25Z</time>
      </trkpt>
      <trkpt lat="45.78411" lon="4.85398">
        <ele>169</ele>
        <time>2016-08-26T06:40:34Z</time>
      </trkpt>
      <trkpt lat="45.78409" lon="4.85392">
        <ele>165</ele>
        <time>2016-08-26T06:40:37Z</time>
      </trkpt>
      <trkpt lat="45.78404" lon="4.85375">
        <ele>162</ele>
        <time>2016-08-26T06:40:44Z</time>
      </trkpt>
      <trkpt lat="45.78399" lon="4.85359">
        <ele>163</ele>
        <time>2016-08-26T06:40:52Z</time>
      </trkpt>
      <trkpt lat="45.78393" lon="4.85347">
        <ele>166</ele>
        <time>2016-08-26T06:40:58Z</time>
      </trkpt>
      <trkpt lat="45.7839" lon="4.85341">
        <ele>166</ele>
        <time>2016-08-26T06:41:01Z</time>
      </trkpt>
      <trkpt lat="45.78384" lon="4.85331">
        <ele>168</ele>
        <time>2016-08-26T06:41:07Z</time>
      </trkpt>
      <trkpt lat="45.78379" lon="4.85317">
        <ele>174</ele>
        <time>2016-08-26T06:41:15Z</time>
      </trkpt>
      <trkpt lat="45.78375" lon="4.85302">
        <ele>174</ele>
        <time>2016-08-26T06:41:21Z</time>
      </trkpt>
      <trkpt lat="45.78368" lon="4.85284">
        <ele>172</ele>
        <time>2016-08-26T06:41:28Z</time>
      </trkpt>
      <trkpt lat="45.78365" lon="4.85278">
        <ele>172</ele>
        <time>2016-08-26T06:41:31Z</time>
      </trkpt>
      <trkpt lat="45.7836" lon="4.85264">
        <ele>171</ele>
        <time>2016-08-26T06:41:38Z</time>
      </trkpt>
      <trkpt lat="45.78353" lon="4.85245">
        <ele>174</ele>
        <time>2016-08-26T06:41:48Z</time>
      </trkpt>
      <trkpt lat="45.78348" lon="4.85237">
        <ele>172</ele>
        <time>2016-08-26T06:41:53Z</time>
      </trkpt>
      <trkpt lat="45.78344" lon="4.85228">
        <ele>172</ele>
        <time>2016-08-26T06:41:57Z</time>
      </trkpt>
      <trkpt lat="45.7834" lon="4.85219">
        <ele>172</ele>
        <time>2016-08-26T06:42:01Z</time>
      </trkpt>
      <trkpt lat="45.78334" lon="4.85208">
        <ele>171</ele>
        <time>2016-08-26T06:42:07Z</time>
      </trkpt>
      <trkpt lat="45.78327" lon="4.85195">
        <ele>169</ele>
        <time>2016-08-26T06:42:14Z</time>
      </trkpt>
      <trkpt lat="45.78322" lon="4.85185">
        <ele>164</ele>
        <time>2016-08-26T06:42:19Z</time>
      </trkpt>
      <trkpt lat="45.78314" lon="4.85169">
        <ele>158</ele>
        <time>2016-08-26T06:42:26Z</time>
      </trkpt>
      <trkpt lat="45.78309" lon="4.85161">
        <ele>163</ele>
        <time>2016-08-26T06:42:31Z</time>
      </trkpt>
      <trkpt lat="45.78303" lon="4.85144">
        <ele>162</ele>
        <time>2016-08-26T06:42:40Z</time>
      </trkpt>
      <trkpt lat="45.78301" lon="4.85141">
        <ele>163</ele>
        <time>2016-08-26T06:42:43Z</time>
      </trkpt>
      <trkpt lat="45.78294" lon="4.85132">
        <ele>166</ele>
        <time>2016-08-26T06:42:49Z</time>
      </trkpt>
      <trkpt lat="45.78286" lon="4.85119">
        <ele>172</ele>
        <time>2016-08-26T06:42:55Z</time>
      </trkpt>
      <trkpt lat="45.78277" lon="4.85109">
        <ele>169</ele>
        <time>2016-08-26T06:43:01Z</time>
      </trkpt>
      <trkpt lat="45.7827" lon="4.85099">
        <ele>171</ele>
        <time>2016-08-26T06:43:07Z</time>
      </trkpt>
      <trkpt lat="45.78264" lon="4.85089">
        <ele>172</ele>
        <time>2016-08-26T06:43:13Z</time>
      </trkpt>
      <trkpt lat="45.78261" lon="4.85082">
        <ele>173</ele>
        <time>2016-08-26T06:43:19Z</time>
      </trkpt>
      <trkpt lat="45.7825" lon="4.85058">
        <ele>173</ele>
        <time>2016-08-26T06:43:30Z</time>
      </trkpt>
      <trkpt lat="45.78248" lon="4.85055">
        <ele>171</ele>
        <time>2016-08-26T06:43:31Z</time>
      </trkpt>
      <trkpt lat="45.78239" lon="4.85031">
        <ele>170</ele>
        <time>2016-08-26T06:43:41Z</time>
      </trkpt>
      <trkpt lat="45.78237" lon="4.85026">
        <ele>169</ele>
        <time>2016-08-26T06:43:43Z</time>
      </trkpt>
      <trkpt lat="45.78233" lon="4.85013">
        <ele>171</ele>
        <time>2016-08-26T06:43:49Z</time>
      </trkpt>
      <trkpt lat="45.78228" lon="4.85">
        <ele>171</ele>
        <time>2016-08-26T06:43:55Z</time>
      </trkpt>
      <trkpt lat="45.78223" lon="4.84988">
        <ele>172</ele>
        <time>2016-08-26T06:44:01Z</time>
      </trkpt>
      <trkpt lat="45.78213" lon="4.84967">
        <ele>173</ele>
        <time>2016-08-26T06:44:12Z</time>
      </trkpt>
      <trkpt lat="45.78212" lon="4.84965">
        <ele>174</ele>
        <time>2016-08-26T06:44:13Z</time>
      </trkpt>
      <trkpt lat="45.78203" lon="4.84954">
        <ele>176</ele>
        <time>2016-08-26T06:44:20Z</time>
      </trkpt>
      <trkpt lat="45.78192" lon="4.84944">
        <ele>177</ele>
        <time>2016-08-26T06:44:28Z</time>
      </trkpt>
      <trkpt lat="45.78188" lon="4.84941">
        <ele>178</ele>
        <time>2016-08-26T06:44:31Z</time>
      </trkpt>
      <trkpt lat="45.7818" lon="4.84929">
        <ele>180</ele>
        <time>2016-08-26T06:44:38Z</time>
      </trkpt>
      <trkpt lat="45.78175" lon="4.84923">
        <ele>179</ele>
        <time>2016-08-26T06:44:43Z</time>
      </trkpt>
      <trkpt lat="45.78166" lon="4.84919">
        <ele>177</ele>
        <time>2016-08-26T06:44:49Z</time>
      </trkpt>
      <trkpt lat="45.78152" lon="4.84915">
        <ele>180</ele>
        <time>2016-08-26T06:44:56Z</time>
      </trkpt>
      <trkpt lat="45.78138" lon="4.84912">
        <ele>183</ele>
        <time>2016-08-26T06:45:03Z</time>
      </trkpt>
      <trkpt lat="45.78133" lon="4.84906">
        <ele>180</ele>
        <time>2016-08-26T06:45:07Z</time>
      </trkpt>
      <trkpt lat="45.7813" lon="4.84883">
        <ele>172</ele>
        <time>2016-08-26T06:45:15Z</time>
      </trkpt>
      <trkpt lat="45.78128" lon="4.84857">
        <ele>170</ele>
        <time>2016-08-26T06:45:24Z</time>
      </trkpt>
      <trkpt lat="45.78126" lon="4.84847">
        <ele>174</ele>
        <time>2016-08-26T06:45:28Z</time>
      </trkpt>
      <trkpt lat="45.78123" lon="4.84844">
        <ele>174</ele>
        <time>2016-08-26T06:45:31Z</time>
      </trkpt>
      <trkpt lat="45.78116" lon="4.84831">
        <ele>174</ele>
        <time>2016-08-26T06:45:39Z</time>
      </trkpt>
      <trkpt lat="45.78111" lon="4.84828">
        <ele>176</ele>
        <time>2016-08-26T06:45:43Z</time>
      </trkpt>
      <trkpt lat="45.78102" lon="4.84816">
        <ele>181</ele>
        <time>2016-08-26T06:45:51Z</time>
      </trkpt>
      <trkpt lat="45.78096" lon="4.84814">
        <ele>180</ele>
        <time>2016-08-26T06:45:55Z</time>
      </trkpt>
      <trkpt lat="45.78086" lon="4.84807">
        <ele>180</ele>
        <time>2016-08-26T06:46:01Z</time>
      </trkpt>
      <trkpt lat="45.78072" lon="4.84785">
        <ele>173</ele>
        <time>2016-08-26T06:46:12Z</time>
      </trkpt>
      <trkpt lat="45.78068" lon="4.84782">
        <ele>176</ele>
        <time>2016-08-26T06:46:15Z</time>
      </trkpt>
      <trkpt lat="45.78057" lon="4.84763">
        <ele>175</ele>
        <time>2016-08-26T06:46:25Z</time>
      </trkpt>
      <trkpt lat="45.78056" lon="4.8476">
        <ele>176</ele>
        <time>2016-08-26T06:46:26Z</time>
      </trkpt>
      <trkpt lat="45.78049" lon="4.84747">
        <ele>176</ele>
        <time>2016-08-26T06:46:33Z</time>
      </trkpt>
      <trkpt lat="45.78038" lon="4.84739">
        <ele>178</ele>
        <time>2016-08-26T06:46:40Z</time>
      </trkpt>
      <trkpt lat="45.78033" lon="4.84732">
        <ele>178</ele>
        <time>2016-08-26T06:46:44Z</time>
      </trkpt>
      <trkpt lat="45.78021" lon="4.84727">
        <ele>177</ele>
        <time>2016-08-26T06:46:50Z</time>
      </trkpt>
      <trkpt lat="45.78007" lon="4.84708">
        <ele>176</ele>
        <time>2016-08-26T06:47:01Z</time>
      </trkpt>
      <trkpt lat="45.78007" lon="4.84706">
        <ele>174</ele>
        <time>2016-08-26T06:47:02Z</time>
      </trkpt>
      <trkpt lat="45.77991" lon="4.8469">
        <ele>177</ele>
        <time>2016-08-26T06:47:13Z</time>
      </trkpt>
      <trkpt lat="45.77982" lon="4.84682">
        <ele>171</ele>
        <time>2016-08-26T06:47:19Z</time>
      </trkpt>
      <trkpt lat="45.77981" lon="4.84681">
        <ele>169</ele>
        <time>2016-08-26T06:47:20Z</time>
      </trkpt>
      <trkpt lat="45.77969" lon="4.84666">
        <ele>173</ele>
        <time>2016-08-26T06:47:30Z</time>
      </trkpt>
      <trkpt lat="45.77965" lon="4.84663">
        <ele>174</ele>
        <time>2016-08-26T06:47:32Z</time>
      </trkpt>
      <trkpt lat="45.77955" lon="4.84658">
        <ele>175</ele>
        <time>2016-08-26T06:47:38Z</time>
      </trkpt>
      <trkpt lat="45.77944" lon="4.8465">
        <ele>179</ele>
        <time>2016-08-26T06:47:46Z</time>
      </trkpt>
      <trkpt lat="45.77938" lon="4.8464">
        <ele>173</ele>
        <time>2016-08-26T06:47:51Z</time>
      </trkpt>
      <trkpt lat="45.77933" lon="4.84633">
        <ele>175</ele>
        <time>2016-08-26T06:47:56Z</time>
      </trkpt>
      <trkpt lat="45.77925" lon="4.84627">
        <ele>173</ele>
        <time>2016-08-26T06:48:02Z</time>
      </trkpt>
      <trkpt lat="45.77905" lon="4.84612">
        <ele>176</ele>
        <time>2016-08-26T06:48:13Z</time>
      </trkpt>
      <trkpt lat="45.77897" lon="4.84604">
        <ele>178</ele>
        <time>2016-08-26T06:48:19Z</time>
      </trkpt>
      <trkpt lat="45.77895" lon="4.84603">
        <ele>178</ele>
        <time>2016-08-26T06:48:20Z</time>
      </trkpt>
      <trkpt lat="45.77887" lon="4.84597">
        <ele>177</ele>
        <time>2016-08-26T06:48:26Z</time>
      </trkpt>
      <trkpt lat="45.77877" lon="4.84588">
        <ele>175</ele>
        <time>2016-08-26T06:48:34Z</time>
      </trkpt>
      <trkpt lat="45.77871" lon="4.84583">
        <ele>173</ele>
        <time>2016-08-26T06:48:38Z</time>
      </trkpt>
      <trkpt lat="45.77852" lon="4.84569">
        <ele>174</ele>
        <time>2016-08-26T06:48:49Z</time>
      </trkpt>
      <trkpt lat="45.7785" lon="4.84569">
        <ele>176</ele>
        <time>2016-08-26T06:48:50Z</time>
      </trkpt>
      <trkpt lat="45.77841" lon="4.84561">
        <ele>183</ele>
        <time>2016-08-26T06:48:57Z</time>
      </trkpt>
      <trkpt lat="45.77831" lon="4.84556">
        <ele>186</ele>
        <time>2016-08-26T06:49:03Z</time>
      </trkpt>
      <trkpt lat="45.77821" lon="4.84543">
        <ele>181</ele>
        <time>2016-08-26T06:49:10Z</time>
      </trkpt>
      <trkpt lat="45.77812" lon="4.84528">
        <ele>177</ele>
        <time>2016-08-26T06:49:19Z</time>
      </trkpt>
      <trkpt lat="45.77811" lon="4.84526">
        <ele>177</ele>
        <time>2016-08-26T06:49:20Z</time>
      </trkpt>
      <trkpt lat="45.77802" lon="4.84516">
        <ele>176</ele>
        <time>2016-08-26T06:49:31Z</time>
      </trkpt>
      <trkpt lat="45.77799" lon="4.84514">
        <ele>178</ele>
        <time>2016-08-26T06:49:32Z</time>
      </trkpt>
      <trkpt lat="45.77785" lon="4.8451">
        <ele>177</ele>
        <time>2016-08-26T06:49:41Z</time>
      </trkpt>
      <trkpt lat="45.77775" lon="4.84505">
        <ele>175</ele>
        <time>2016-08-26T06:49:47Z</time>
      </trkpt>
      <trkpt lat="45.77763" lon="4.84508">
        <ele>175</ele>
        <time>2016-08-26T06:49:55Z</time>
      </trkpt>
      <trkpt lat="45.77761" lon="4.84509">
        <ele>175</ele>
        <time>2016-08-26T06:49:56Z</time>
      </trkpt>
      <trkpt lat="45.77752" lon="4.84516">
        <ele>175</ele>
        <time>2016-08-26T06:50:02Z</time>
      </trkpt>
      <trkpt lat="45.77738" lon="4.84514">
        <ele>170</ele>
        <time>2016-08-26T06:50:11Z</time>
      </trkpt>
      <trkpt lat="45.77734" lon="4.84511">
        <ele>170</ele>
        <time>2016-08-26T06:50:14Z</time>
      </trkpt>
      <trkpt lat="45.77726" lon="4.84502">
        <ele>170</ele>
        <time>2016-08-26T06:50:20Z</time>
      </trkpt>
      <trkpt lat="45.77718" lon="4.84492">
        <ele>171</ele>
        <time>2016-08-26T06:50:26Z</time>
      </trkpt>
      <trkpt lat="45.7771" lon="4.84482">
        <ele>174</ele>
        <time>2016-08-26T06:50:32Z</time>
      </trkpt>
      <trkpt lat="45.77703" lon="4.84471">
        <ele>174</ele>
        <time>2016-08-26T06:50:38Z</time>
      </trkpt>
      <trkpt lat="45.77693" lon="4.8445">
        <ele>174</ele>
        <time>2016-08-26T06:50:49Z</time>
      </trkpt>
      <trkpt lat="45.77692" lon="4.84448">
        <ele>175</ele>
        <time>2016-08-26T06:50:50Z</time>
      </trkpt>
      <trkpt lat="45.77685" lon="4.84438">
        <ele>175</ele>
        <time>2016-08-26T06:50:58Z</time>
      </trkpt>
      <trkpt lat="45.77679" lon="4.84431">
        <ele>170</ele>
        <time>2016-08-26T06:51:03Z</time>
      </trkpt>
      <trkpt lat="45.77665" lon="4.84418">
        <ele>162</ele>
        <time>2016-08-26T06:51:13Z</time>
      </trkpt>
      <trkpt lat="45.77666" lon="4.844">
        <ele>165</ele>
        <time>2016-08-26T06:51:19Z</time>
      </trkpt>
      <trkpt lat="45.77671" lon="4.84389">
        <ele>165</ele>
        <time>2016-08-26T06:51:24Z</time>
      </trkpt>
      <trkpt lat="45.77677" lon="4.84377">
        <ele>168</ele>
        <time>2016-08-26T06:51:29Z</time>
      </trkpt>
      <trkpt lat="45.77683" lon="4.84375">
        <ele>168</ele>
        <time>2016-08-26T06:51:33Z</time>
      </trkpt>
      <trkpt lat="45.77699" lon="4.84378">
        <ele>169</ele>
        <time>2016-08-26T06:51:42Z</time>
      </trkpt>
      <trkpt lat="45.77708" lon="4.84381">
        <ele>169</ele>
        <time>2016-08-26T06:51:48Z</time>
      </trkpt>
      <trkpt lat="45.77711" lon="4.84382">
        <ele>169</ele>
        <time>2016-08-26T06:51:50Z</time>
      </trkpt>
      <trkpt lat="45.77721" lon="4.84385">
        <ele>169</ele>
        <time>2016-08-26T06:51:56Z</time>
      </trkpt>
      <trkpt lat="45.77731" lon="4.84389">
        <ele>168</ele>
        <time>2016-08-26T06:52:02Z</time>
      </trkpt>
      <trkpt lat="45.77741" lon="4.84391">
        <ele>167</ele>
        <time>2016-08-26T06:52:08Z</time>
      </trkpt>
      <trkpt lat="45.77755" lon="4.84394">
        <ele>169</ele>
        <time>2016-08-26T06:52:17Z</time>
      </trkpt>
      <trkpt lat="45.77757" lon="4.84387">
        <ele>169</ele>
        <time>2016-08-26T06:52:21Z</time>
      </trkpt>
      <trkpt lat="45.77749" lon="4.84382">
        <ele>169</ele>
        <time>2016-08-26T06:52:26Z</time>
      </trkpt>
      <trkpt lat="45.7774" lon="4.84376">
        <ele>170</ele>
        <time>2016-08-26T06:52:32Z</time>
      </trkpt>
      <trkpt lat="45.77729" lon="4.8437">
        <ele>172</ele>
        <time>2016-08-26T06:52:39Z</time>
      </trkpt>
      <trkpt lat="45.77721" lon="4.84368">
        <ele>176</ele>
        <time>2016-08-26T06:52:44Z</time>
      </trkpt>
      <trkpt lat="45.77712" lon="4.84366">
        <ele>173</ele>
        <time>2016-08-26T06:52:50Z</time>
      </trkpt>
      <trkpt lat="45.77701" lon="4.84363">
        <ele>175</ele>
        <time>2016-08-26T06:52:57Z</time>
      </trkpt>
      <trkpt lat="45.7769" lon="4.8436">
        <ele>176</ele>
        <time>2016-08-26T06:53:03Z</time>
      </trkpt>
      <trkpt lat="45.77681" lon="4.84355">
        <ele>176</ele>
        <time>2016-08-26T06:53:08Z</time>
      </trkpt>
      <trkpt lat="45.77672" lon="4.8435">
        <ele>177</ele>
        <time>2016-08-26T06:53:14Z</time>
      </trkpt>
      <trkpt lat="45.77663" lon="4.84348">
        <ele>179</ele>
        <time>2016-08-26T06:53:20Z</time>
      </trkpt>
      <trkpt lat="45.77647" lon="4.84337">
        <ele>179</ele>
        <time>2016-08-26T06:53:31Z</time>
      </trkpt>
      <trkpt lat="45.77638" lon="4.84333">
        <ele>176</ele>
        <time>2016-08-26T06:53:36Z</time>
      </trkpt>
      <trkpt lat="45.77634" lon="4.84332">
        <ele>176</ele>
        <time>2016-08-26T06:53:38Z</time>
      </trkpt>
      <trkpt lat="45.77623" lon="4.84327">
        <ele>183</ele>
        <time>2016-08-26T06:53:46Z</time>
      </trkpt>
      <trkpt lat="45.77613" lon="4.84322">
        <ele>187</ele>
        <time>2016-08-26T06:53:53Z</time>
      </trkpt>
      <trkpt lat="45.77607" lon="4.84319">
        <ele>189</ele>
        <time>2016-08-26T06:53:56Z</time>
      </trkpt>
      <trkpt lat="45.77594" lon="4.84311">
        <ele>185</ele>
        <time>2016-08-26T06:54:03Z</time>
      </trkpt>
      <trkpt lat="45.77584" lon="4.84303">
        <ele>177</ele>
        <time>2016-08-26T06:54:10Z</time>
      </trkpt>
      <trkpt lat="45.77577" lon="4.84293">
        <ele>179</ele>
        <time>2016-08-26T06:54:15Z</time>
      </trkpt>
      <trkpt lat="45.7757" lon="4.84287">
        <ele>180</ele>
        <time>2016-08-26T06:54:20Z</time>
      </trkpt>
      <trkpt lat="45.7756" lon="4.84284">
        <ele>181</ele>
        <time>2016-08-26T06:54:26Z</time>
      </trkpt>
      <trkpt lat="45.77552" lon="4.84278">
        <ele>181</ele>
        <time>2016-08-26T06:54:32Z</time>
      </trkpt>
      <trkpt lat="45.77539" lon="4.84263">
        <ele>181</ele>
        <time>2016-08-26T06:54:43Z</time>
      </trkpt>
      <trkpt lat="45.77536" lon="4.8426">
        <ele>176</ele>
        <time>2016-08-26T06:54:45Z</time>
      </trkpt>
      <trkpt lat="45.77518" lon="4.84249">
        <ele>175</ele>
        <time>2016-08-26T06:54:55Z</time>
      </trkpt>
      <trkpt lat="45.77517" lon="4.84248">
        <ele>174</ele>
        <time>2016-08-26T06:54:56Z</time>
      </trkpt>
      <trkpt lat="45.77504" lon="4.84242">
        <ele>171</ele>
        <time>2016-08-26T06:55:04Z</time>
      </trkpt>
      <trkpt lat="45.77495" lon="4.84238">
        <ele>171</ele>
        <time>2016-08-26T06:55:09Z</time>
      </trkpt>
      <trkpt lat="45.77489" lon="4.8423">
        <ele>172</ele>
        <time>2016-08-26T06:55:14Z</time>
      </trkpt>
      <trkpt lat="45.77479" lon="4.84225">
        <ele>172</ele>
        <time>2016-08-26T06:55:21Z</time>
      </trkpt>
      <trkpt lat="45.77471" lon="4.84216">
        <ele>174</ele>
        <time>2016-08-26T06:55:27Z</time>
      </trkpt>
      <trkpt lat="45.77464" lon="4.8421">
        <ele>173</ele>
        <time>2016-08-26T06:55:32Z</time>
      </trkpt>
      <trkpt lat="45.77454" lon="4.84204">
        <ele>171</ele>
        <time>2016-08-26T06:55:38Z</time>
      </trkpt>
      <trkpt lat="45.77444" lon="4.84197">
        <ele>170</ele>
        <time>2016-08-26T06:55:44Z</time>
      </trkpt>
      <trkpt lat="45.77433" lon="4.8419">
        <ele>176</ele>
        <time>2016-08-26T06:55:52Z</time>
      </trkpt>
      <trkpt lat="45.77422" lon="4.84179">
        <ele>173</ele>
        <time>2016-08-26T06:56:00Z</time>
      </trkpt>
      <trkpt lat="45.77418" lon="4.84175">
        <ele>172</ele>
        <time>2016-08-26T06:56:03Z</time>
      </trkpt>
      <trkpt lat="45.7741" lon="4.8417">
        <ele>176</ele>
        <time>2016-08-26T06:56:08Z</time>
      </trkpt>
      <trkpt lat="45.77399" lon="4.84166">
        <ele>176</ele>
        <time>2016-08-26T06:56:15Z</time>
      </trkpt>
      <trkpt lat="45.77392" lon="4.84161">
        <ele>177</ele>
        <time>2016-08-26T06:56:20Z</time>
      </trkpt>
      <trkpt lat="45.77381" lon="4.84154">
        <ele>175</ele>
        <time>2016-08-26T06:56:27Z</time>
      </trkpt>
      <trkpt lat="45.7737" lon="4.84142">
        <ele>173</ele>
        <time>2016-08-26T06:56:35Z</time>
      </trkpt>
      <trkpt lat="45.77357" lon="4.84136">
        <ele>176</ele>
        <time>2016-08-26T06:56:43Z</time>
      </trkpt>
      <trkpt lat="45.77353" lon="4.84133">
        <ele>177</ele>
        <time>2016-08-26T06:56:46Z</time>
      </trkpt>
      <trkpt lat="45.77346" lon="4.84127">
        <ele>175</ele>
        <time>2016-08-26T06:56:51Z</time>
      </trkpt>
      <trkpt lat="45.77334" lon="4.84115">
        <ele>169</ele>
        <time>2016-08-26T06:56:59Z</time>
      </trkpt>
      <trkpt lat="45.77329" lon="4.84111">
        <ele>168</ele>
        <time>2016-08-26T06:57:02Z</time>
      </trkpt>
      <trkpt lat="45.7732" lon="4.84105">
        <ele>165</ele>
        <time>2016-08-26T06:57:08Z</time>
      </trkpt>
      <trkpt lat="45.77311" lon="4.84098">
        <ele>167</ele>
        <time>2016-08-26T06:57:15Z</time>
      </trkpt>
      <trkpt lat="45.77299" lon="4.84091">
        <ele>167</ele>
        <time>2016-08-26T06:57:23Z</time>
      </trkpt>
      <trkpt lat="45.77293" lon="4.84088">
        <ele>168</ele>
        <time>2016-08-26T06:57:27Z</time>
      </trkpt>
      <trkpt lat="45.77281" lon="4.84082">
        <ele>169</ele>
        <time>2016-08-26T06:57:35Z</time>
      </trkpt>
      <trkpt lat="45.77265" lon="4.84076">
        <ele>169</ele>
        <time>2016-08-26T06:57:45Z</time>
      </trkpt>
      <trkpt lat="45.77263" lon="4.84075">
        <ele>169</ele>
        <time>2016-08-26T06:57:46Z</time>
      </trkpt>
      <trkpt lat="45.77254" lon="4.84074">
        <ele>168</ele>
        <time>2016-08-26T06:57:52Z</time>
      </trkpt>
      <trkpt lat="45.77244" lon="4.84071">
        <ele>167</ele>
        <time>2016-08-26T06:57:58Z</time>
      </trkpt>
      <trkpt lat="45.77228" lon="4.84067">
        <ele>166</ele>
        <time>2016-08-26T06:58:09Z</time>
      </trkpt>
      <trkpt lat="45.77214" lon="4.84063">
        <ele>169</ele>
        <time>2016-08-26T06:58:15Z</time>
      </trkpt>
      <trkpt lat="45.77209" lon="4.84066">
        <ele>170</ele>
        <time>2016-08-26T06:58:19Z</time>
      </trkpt>
      <trkpt lat="45.77195" lon="4.84069">
        <ele>171</ele>
        <time>2016-08-26T06:58:27Z</time>
      </trkpt>
      <trkpt lat="45.77193" lon="4.84069">
        <ele>170</ele>
        <time>2016-08-26T06:58:28Z</time>
      </trkpt>
      <trkpt lat="45.77184" lon="4.8407">
        <ele>169</ele>
        <time>2016-08-26T06:58:34Z</time>
      </trkpt>
      <trkpt lat="45.77174" lon="4.84069">
        <ele>169</ele>
        <time>2016-08-26T06:58:40Z</time>
      </trkpt>
      <trkpt lat="45.77163" lon="4.84068">
        <ele>168</ele>
        <time>2016-08-26T06:58:46Z</time>
      </trkpt>
      <trkpt lat="45.77154" lon="4.84068">
        <ele>169</ele>
        <time>2016-08-26T06:58:52Z</time>
      </trkpt>
      <trkpt lat="45.77143" lon="4.84068">
        <ele>169</ele>
        <time>2016-08-26T06:58:58Z</time>
      </trkpt>
      <trkpt lat="45.77133" lon="4.84068">
        <ele>168</ele>
        <time>2016-08-26T06:59:04Z</time>
      </trkpt>
      <trkpt lat="45.77121" lon="4.84068">
        <ele>167</ele>
        <time>2016-08-26T06:59:11Z</time>
      </trkpt>
      <trkpt lat="45.77113" lon="4.84069">
        <ele>169</ele>
        <time>2016-08-26T06:59:16Z</time>
      </trkpt>
      <trkpt lat="45.771" lon="4.84068">
        <ele>169</ele>
        <time>2016-08-26T06:59:24Z</time>
      </trkpt>
      <trkpt lat="45.77094" lon="4.84068">
        <ele>169</ele>
        <time>2016-08-26T06:59:28Z</time>
      </trkpt>
      <trkpt lat="45.77084" lon="4.84071">
        <ele>170</ele>
        <time>2016-08-26T06:59:34Z</time>
      </trkpt>
      <trkpt lat="45.77073" lon="4.84072">
        <ele>172</ele>
        <time>2016-08-26T06:59:40Z</time>
      </trkpt>
      <trkpt lat="45.77056" lon="4.84072">
        <ele>171</ele>
        <time>2016-08-26T06:59:50Z</time>
      </trkpt>
      <trkpt lat="45.77042" lon="4.8407">
        <ele>171</ele>
        <time>2016-08-26T06:59:57Z</time>
      </trkpt>
      <trkpt lat="45.7704" lon="4.84069">
        <ele>171</ele>
        <time>2016-08-26T06:59:58Z</time>
      </trkpt>
      <trkpt lat="45.77032" lon="4.84066">
        <ele>172</ele>
        <time>2016-08-26T07:00:04Z</time>
      </trkpt>
      <trkpt lat="45.77023" lon="4.84066">
        <ele>170</ele>
        <time>2016-08-26T07:00:10Z</time>
      </trkpt>
      <trkpt lat="45.77008" lon="4.84067">
        <ele>172</ele>
        <time>2016-08-26T07:00:19Z</time>
      </trkpt>
      <trkpt lat="45.77002" lon="4.8407">
        <ele>172</ele>
        <time>2016-08-26T07:00:23Z</time>
      </trkpt>
      <trkpt lat="45.76989" lon="4.84074">
        <ele>179</ele>
        <time>2016-08-26T07:00:29Z</time>
      </trkpt>
      <trkpt lat="45.76976" lon="4.84073">
        <ele>177</ele>
        <time>2016-08-26T07:00:37Z</time>
      </trkpt>
      <trkpt lat="45.76969" lon="4.84074">
        <ele>179</ele>
        <time>2016-08-26T07:00:41Z</time>
      </trkpt>
      <trkpt lat="45.76961" lon="4.84073">
        <ele>180</ele>
        <time>2016-08-26T07:00:46Z</time>
      </trkpt>
      <trkpt lat="45.76947" lon="4.84074">
        <ele>181</ele>
        <time>2016-08-26T07:00:55Z</time>
      </trkpt>
      <trkpt lat="45.76942" lon="4.84073">
        <ele>182</ele>
        <time>2016-08-26T07:00:59Z</time>
      </trkpt>
      <trkpt lat="45.76931" lon="4.84072">
        <ele>177</ele>
        <time>2016-08-26T07:01:05Z</time>
      </trkpt>
      <trkpt lat="45.76919" lon="4.84071">
        <ele>179</ele>
        <time>2016-08-26T07:01:13Z</time>
      </trkpt>
      <trkpt lat="45.76914" lon="4.8407">
        <ele>178</ele>
        <time>2016-08-26T07:01:16Z</time>
      </trkpt>
      <trkpt lat="45.76897" lon="4.84069">
        <ele>176</ele>
        <time>2016-08-26T07:01:26Z</time>
      </trkpt>
      <trkpt lat="45.76892" lon="4.84068">
        <ele>173</ele>
        <time>2016-08-26T07:01:29Z</time>
      </trkpt>
      <trkpt lat="45.76886" lon="4.84065">
        <ele>172</ele>
        <time>2016-08-26T07:01:36Z</time>
      </trkpt>
      <trkpt lat="45.76876" lon="4.84063">
        <ele>170</ele>
        <time>2016-08-26T07:01:44Z</time>
      </trkpt>
      <trkpt lat="45.76876" lon="4.84063">
        <ele>169</ele>
        <time>2016-08-26T07:01:46Z</time>
      </trkpt>
      <trkpt lat="45.76857" lon="4.84067">
        <ele>166</ele>
        <time>2016-08-26T07:01:57Z</time>
      </trkpt>
      <trkpt lat="45.76854" lon="4.84068">
        <ele>165</ele>
        <time>2016-08-26T07:01:58Z</time>
      </trkpt>
      <trkpt lat="45.76829" lon="4.84069">
        <ele>166</ele>
        <time>2016-08-26T07:02:09Z</time>
      </trkpt>
      <trkpt lat="45.76827" lon="4.84069">
        <ele>165</ele>
        <time>2016-08-26T07:02:10Z</time>
      </trkpt>
      <trkpt lat="45.76813" lon="4.84072">
        <ele>162</ele>
        <time>2016-08-26T07:02:18Z</time>
      </trkpt>
      <trkpt lat="45.76803" lon="4.84072">
        <ele>162</ele>
        <time>2016-08-26T07:02:23Z</time>
      </trkpt>
      <trkpt lat="45.76789" lon="4.84073">
        <ele>161</ele>
        <time>2016-08-26T07:02:31Z</time>
      </trkpt>
      <trkpt lat="45.76784" lon="4.84074">
        <ele>160</ele>
        <time>2016-08-26T07:02:34Z</time>
      </trkpt>
      <trkpt lat="45.76774" lon="4.84076">
        <ele>162</ele>
        <time>2016-08-26T07:02:40Z</time>
      </trkpt>
      <trkpt lat="45.76762" lon="4.84075">
        <ele>163</ele>
        <time>2016-08-26T07:02:47Z</time>
      </trkpt>
      <trkpt lat="45.76753" lon="4.84076">
        <ele>163</ele>
        <time>2016-08-26T07:02:52Z</time>
      </trkpt>
      <trkpt lat="45.76743" lon="4.84076">
        <ele>162</ele>
        <time>2016-08-26T07:02:58Z</time>
      </trkpt>
      <trkpt lat="45.76733" lon="4.84076">
        <ele>162</ele>
        <time>2016-08-26T07:03:04Z</time>
      </trkpt>
      <trkpt lat="45.76721" lon="4.84077">
        <ele>161</ele>
        <time>2016-08-26T07:03:11Z</time>
      </trkpt>
      <trkpt lat="45.76714" lon="4.84078">
        <ele>161</ele>
        <time>2016-08-26T07:03:16Z</time>
      </trkpt>
      <trkpt lat="45.76705" lon="4.8408">
        <ele>162</ele>
        <time>2016-08-26T07:03:22Z</time>
      </trkpt>
      <trkpt lat="45.7669" lon="4.84083">
        <ele>161</ele>
        <time>2016-08-26T07:03:30Z</time>
      </trkpt>
      <trkpt lat="45.76683" lon="4.84083">
        <ele>162</ele>
        <time>2016-08-26T07:03:34Z</time>
      </trkpt>
      <trkpt lat="45.76673" lon="4.84084">
        <ele>164</ele>
        <time>2016-08-26T07:03:40Z</time>
      </trkpt>
      <trkpt lat="45.76664" lon="4.84086">
        <ele>162</ele>
        <time>2016-08-26T07:03:46Z</time>
      </trkpt>
      <trkpt lat="45.76655" lon="4.84087">
        <ele>161</ele>
        <time>2016-08-26T07:03:52Z</time>
      </trkpt>
      <trkpt lat="45.76646" lon="4.84088">
        <ele>162</ele>
        <time>2016-08-26T07:03:58Z</time>
      </trkpt>
      <trkpt lat="45.76635" lon="4.8409">
        <ele>162</ele>
        <time>2016-08-26T07:04:04Z</time>
      </trkpt>
      <trkpt lat="45.76626" lon="4.84092">
        <ele>162</ele>
        <time>2016-08-26T07:04:10Z</time>
      </trkpt>
      <trkpt lat="45.76616" lon="4.84093">
        <ele>162</ele>
        <time>2016-08-26T07:04:16Z</time>
      </trkpt>
      <trkpt lat="45.76608" lon="4.84095">
        <ele>162</ele>
        <time>2016-08-26T07:04:22Z</time>
      </trkpt>
      <trkpt lat="45.76592" lon="4.84098">
        <ele>161</ele>
        <time>2016-08-26T07:04:31Z</time>
      </trkpt>
      <trkpt lat="45.76587" lon="4.84098">
        <ele>162</ele>
        <time>2016-08-26T07:04:34Z</time>
      </trkpt>
      <trkpt lat="45.76578" lon="4.84099">
        <ele>161</ele>
        <time>2016-08-26T07:04:40Z</time>
      </trkpt>
      <trkpt lat="45.76562" lon="4.841">
        <ele>158</ele>
        <time>2016-08-26T07:04:50Z</time>
      </trkpt>
      <trkpt lat="45.76558" lon="4.841">
        <ele>159</ele>
        <time>2016-08-26T07:04:52Z</time>
      </trkpt>
      <trkpt lat="45.76547" lon="4.84101">
        <ele>159</ele>
        <time>2016-08-26T07:04:58Z</time>
      </trkpt>
      <trkpt lat="45.76536" lon="4.84101">
        <ele>161</ele>
        <time>2016-08-26T07:05:04Z</time>
      </trkpt>
      <trkpt lat="45.76523" lon="4.84101">
        <ele>162</ele>
        <time>2016-08-26T07:05:12Z</time>
      </trkpt>
      <trkpt lat="45.76516" lon="4.84099">
        <ele>164</ele>
        <time>2016-08-26T07:05:16Z</time>
      </trkpt>
      <trkpt lat="45.76507" lon="4.84099">
        <ele>164</ele>
        <time>2016-08-26T07:05:22Z</time>
      </trkpt>
      <trkpt lat="45.76496" lon="4.84099">
        <ele>164</ele>
        <time>2016-08-26T07:05:28Z</time>
      </trkpt>
      <trkpt lat="45.76486" lon="4.84098">
        <ele>163</ele>
        <time>2016-08-26T07:05:34Z</time>
      </trkpt>
      <trkpt lat="45.76476" lon="4.84098">
        <ele>164</ele>
        <time>2016-08-26T07:05:40Z</time>
      </trkpt>
      <trkpt lat="45.76466" lon="4.84098">
        <ele>163</ele>
        <time>2016-08-26T07:05:46Z</time>
      </trkpt>
      <trkpt lat="45.76457" lon="4.84097">
        <ele>164</ele>
        <time>2016-08-26T07:05:52Z</time>
      </trkpt>
      <trkpt lat="45.76447" lon="4.84097">
        <ele>165</ele>
        <time>2016-08-26T07:05:58Z</time>
      </trkpt>
      <trkpt lat="45.76438" lon="4.84096">
        <ele>166</ele>
        <time>2016-08-26T07:06:04Z</time>
      </trkpt>
      <trkpt lat="45.76429" lon="4.84095">
        <ele>165</ele>
        <time>2016-08-26T07:06:10Z</time>
      </trkpt>
      <trkpt lat="45.76419" lon="4.84093">
        <ele>164</ele>
        <time>2016-08-26T07:06:16Z</time>
      </trkpt>
      <trkpt lat="45.76409" lon="4.84092">
        <ele>164</ele>
        <time>2016-08-26T07:06:22Z</time>
      </trkpt>
      <trkpt lat="45.764" lon="4.84092">
        <ele>166</ele>
        <time>2016-08-26T07:06:28Z</time>
      </trkpt>
      <trkpt lat="45.76384" lon="4.84091">
        <ele>163</ele>
        <time>2016-08-26T07:06:37Z</time>
      </trkpt>
      <trkpt lat="45.76377" lon="4.8409">
        <ele>162</ele>
        <time>2016-08-26T07:06:42Z</time>
      </trkpt>
      <trkpt lat="45.7637" lon="4.8409">
        <ele>161</ele>
        <time>2016-08-26T07:06:46Z</time>
      </trkpt>
      <trkpt lat="45.76361" lon="4.84088">
        <ele>160</ele>
        <time>2016-08-26T07:06:52Z</time>
      </trkpt>
      <trkpt lat="45.76346" lon="4.84097">
        <ele>158</ele>
        <time>2016-08-26T07:07:04Z</time>
      </trkpt>
      <trkpt lat="45.76341" lon="4.84094">
        <ele>160</ele>
        <time>2016-08-26T07:07:06Z</time>
      </trkpt>
      <trkpt lat="45.76332" lon="4.8409">
        <ele>162</ele>
        <time>2016-08-26T07:07:10Z</time>
      </trkpt>
      <trkpt lat="45.76321" lon="4.84087">
        <ele>161</ele>
        <time>2016-08-26T07:07:16Z</time>
      </trkpt>
      <trkpt lat="45.7631" lon="4.84086">
        <ele>162</ele>
        <time>2016-08-26T07:07:22Z</time>
      </trkpt>
      <trkpt lat="45.76292" lon="4.84084">
        <ele>166</ele>
        <time>2016-08-26T07:07:33Z</time>
      </trkpt>
      <trkpt lat="45.7629" lon="4.84084">
        <ele>165</ele>
        <time>2016-08-26T07:07:34Z</time>
      </trkpt>
      <trkpt lat="45.7628" lon="4.84083">
        <ele>166</ele>
        <time>2016-08-26T07:07:41Z</time>
      </trkpt>
      <trkpt lat="45.76269" lon="4.84083">
        <ele>166</ele>
        <time>2016-08-26T07:07:46Z</time>
      </trkpt>
      <trkpt lat="45.76259" lon="4.84082">
        <ele>164</ele>
        <time>2016-08-26T07:07:52Z</time>
      </trkpt>
      <trkpt lat="45.76246" lon="4.8408">
        <ele>162</ele>
        <time>2016-08-26T07:08:00Z</time>
      </trkpt>
      <trkpt lat="45.76239" lon="4.84079">
        <ele>165</ele>
        <time>2016-08-26T07:08:04Z</time>
      </trkpt>
      <trkpt lat="45.76229" lon="4.8408">
        <ele>164</ele>
        <time>2016-08-26T07:08:10Z</time>
      </trkpt>
      <trkpt lat="45.76216" lon="4.84079">
        <ele>164</ele>
        <time>2016-08-26T07:08:18Z</time>
      </trkpt>
      <trkpt lat="45.76209" lon="4.84076">
        <ele>166</ele>
        <time>2016-08-26T07:08:22Z</time>
      </trkpt>
      <trkpt lat="45.76198" lon="4.84075">
        <ele>167</ele>
        <time>2016-08-26T07:08:28Z</time>
      </trkpt>
      <trkpt lat="45.76189" lon="4.84072">
        <ele>164</ele>
        <time>2016-08-26T07:08:34Z</time>
      </trkpt>
      <trkpt lat="45.76173" lon="4.84068">
        <ele>165</ele>
        <time>2016-08-26T07:08:44Z</time>
      </trkpt>
      <trkpt lat="45.7617" lon="4.84068">
        <ele>164</ele>
        <time>2016-08-26T07:08:46Z</time>
      </trkpt>
      <trkpt lat="45.7616" lon="4.84067">
        <ele>166</ele>
        <time>2016-08-26T07:08:52Z</time>
      </trkpt>
      <trkpt lat="45.76149" lon="4.84066">
        <ele>168</ele>
        <time>2016-08-26T07:08:59Z</time>
      </trkpt>
      <trkpt lat="45.76141" lon="4.84065">
        <ele>168</ele>
        <time>2016-08-26T07:09:04Z</time>
      </trkpt>
      <trkpt lat="45.76131" lon="4.84062">
        <ele>166</ele>
        <time>2016-08-26T07:09:10Z</time>
      </trkpt>
      <trkpt lat="45.76117" lon="4.84059">
        <ele>164</ele>
        <time>2016-08-26T07:09:20Z</time>
      </trkpt>
      <trkpt lat="45.76108" lon="4.84057">
        <ele>164</ele>
        <time>2016-08-26T07:09:25Z</time>
      </trkpt>
      <trkpt lat="45.76103" lon="4.84057">
        <ele>164</ele>
        <time>2016-08-26T07:09:28Z</time>
      </trkpt>
      <trkpt lat="45.76094" lon="4.84054">
        <ele>164</ele>
        <time>2016-08-26T07:09:34Z</time>
      </trkpt>
      <trkpt lat="45.76084" lon="4.84053">
        <ele>163</ele>
        <time>2016-08-26T07:09:40Z</time>
      </trkpt>
      <trkpt lat="45.76074" lon="4.84052">
        <ele>163</ele>
        <time>2016-08-26T07:09:46Z</time>
      </trkpt>
      <trkpt lat="45.76064" lon="4.8405">
        <ele>163</ele>
        <time>2016-08-26T07:09:52Z</time>
      </trkpt>
      <trkpt lat="45.76055" lon="4.84049">
        <ele>165</ele>
        <time>2016-08-26T07:09:58Z</time>
      </trkpt>
      <trkpt lat="45.76041" lon="4.84047">
        <ele>166</ele>
        <time>2016-08-26T07:10:06Z</time>
      </trkpt>
      <trkpt lat="45.76035" lon="4.84046">
        <ele>165</ele>
        <time>2016-08-26T07:10:10Z</time>
      </trkpt>
      <trkpt lat="45.76025" lon="4.84044">
        <ele>165</ele>
        <time>2016-08-26T07:10:16Z</time>
      </trkpt>
      <trkpt lat="45.76013" lon="4.84042">
        <ele>164</ele>
        <time>2016-08-26T07:10:24Z</time>
      </trkpt>
      <trkpt lat="45.7601" lon="4.84041">
        <ele>164</ele>
        <time>2016-08-26T07:10:28Z</time>
      </trkpt>
      <trkpt lat="45.7601" lon="4.84042">
        <ele>164</ele>
        <time>2016-08-26T07:10:34Z</time>
      </trkpt>
      <trkpt lat="45.75987" lon="4.84037">
        <ele>160</ele>
        <time>2016-08-26T07:10:44Z</time>
      </trkpt>
      <trkpt lat="45.75972" lon="4.84035">
        <ele>162</ele>
        <time>2016-08-26T07:10:51Z</time>
      </trkpt>
      <trkpt lat="45.75966" lon="4.84035">
        <ele>162</ele>
        <time>2016-08-26T07:10:54Z</time>
      </trkpt>
      <trkpt lat="45.75959" lon="4.84034">
        <ele>164</ele>
        <time>2016-08-26T07:10:58Z</time>
      </trkpt>
      <trkpt lat="45.75949" lon="4.84034">
        <ele>165</ele>
        <time>2016-08-26T07:11:04Z</time>
      </trkpt>
      <trkpt lat="45.75939" lon="4.84032">
        <ele>165</ele>
        <time>2016-08-26T07:11:10Z</time>
      </trkpt>
      <trkpt lat="45.75929" lon="4.84031">
        <ele>165</ele>
        <time>2016-08-26T07:11:16Z</time>
      </trkpt>
      <trkpt lat="45.75919" lon="4.8403">
        <ele>165</ele>
        <time>2016-08-26T07:11:22Z</time>
      </trkpt>
      <trkpt lat="45.7591" lon="4.84028">
        <ele>166</ele>
        <time>2016-08-26T07:11:28Z</time>
      </trkpt>
      <trkpt lat="45.75899" lon="4.84026">
        <ele>164</ele>
        <time>2016-08-26T07:11:34Z</time>
      </trkpt>
      <trkpt lat="45.75889" lon="4.84024">
        <ele>164</ele>
        <time>2016-08-26T07:11:40Z</time>
      </trkpt>
      <trkpt lat="45.75872" lon="4.84023">
        <ele>164</ele>
        <time>2016-08-26T07:11:51Z</time>
      </trkpt>
      <trkpt lat="45.7587" lon="4.84023">
        <ele>164</ele>
        <time>2016-08-26T07:11:52Z</time>
      </trkpt>
      <trkpt lat="45.7586" lon="4.84021">
        <ele>162</ele>
        <time>2016-08-26T07:11:58Z</time>
      </trkpt>
      <trkpt lat="45.7585" lon="4.8402">
        <ele>162</ele>
        <time>2016-08-26T07:12:04Z</time>
      </trkpt>
      <trkpt lat="45.7584" lon="4.84019">
        <ele>162</ele>
        <time>2016-08-26T07:12:10Z</time>
      </trkpt>
      <trkpt lat="45.7583" lon="4.84017">
        <ele>164</ele>
        <time>2016-08-26T07:12:16Z</time>
      </trkpt>
      <trkpt lat="45.75821" lon="4.84015">
        <ele>164</ele>
        <time>2016-08-26T07:12:22Z</time>
      </trkpt>
      <trkpt lat="45.75812" lon="4.84012">
        <ele>165</ele>
        <time>2016-08-26T07:12:28Z</time>
      </trkpt>
      <trkpt lat="45.75803" lon="4.8401">
        <ele>165</ele>
        <time>2016-08-26T07:12:34Z</time>
      </trkpt>
      <trkpt lat="45.75794" lon="4.84007">
        <ele>165</ele>
        <time>2016-08-26T07:12:40Z</time>
      </trkpt>
      <trkpt lat="45.75784" lon="4.84004">
        <ele>165</ele>
        <time>2016-08-26T07:12:46Z</time>
      </trkpt>
      <trkpt lat="45.75774" lon="4.83999">
        <ele>164</ele>
        <time>2016-08-26T07:12:53Z</time>
      </trkpt>
      <trkpt lat="45.75766" lon="4.83996">
        <ele>164</ele>
        <time>2016-08-26T07:12:58Z</time>
      </trkpt>
      <trkpt lat="45.75756" lon="4.83994">
        <ele>166</ele>
        <time>2016-08-26T07:13:04Z</time>
      </trkpt>
      <trkpt lat="45.75747" lon="4.83991">
        <ele>167</ele>
        <time>2016-08-26T07:13:10Z</time>
      </trkpt>
      <trkpt lat="45.75738" lon="4.83987">
        <ele>166</ele>
        <time>2016-08-26T07:13:16Z</time>
      </trkpt>
      <trkpt lat="45.75729" lon="4.83982">
        <ele>167</ele>
        <time>2016-08-26T07:13:22Z</time>
      </trkpt>
      <trkpt lat="45.75719" lon="4.83976">
        <ele>167</ele>
        <time>2016-08-26T07:13:28Z</time>
      </trkpt>
      <trkpt lat="45.7571" lon="4.83971">
        <ele>168</ele>
        <time>2016-08-26T07:13:34Z</time>
      </trkpt>
      <trkpt lat="45.75699" lon="4.83965">
        <ele>167</ele>
        <time>2016-08-26T07:13:41Z</time>
      </trkpt>
      <trkpt lat="45.75692" lon="4.83961">
        <ele>167</ele>
        <time>2016-08-26T07:13:46Z</time>
      </trkpt>
      <trkpt lat="45.75683" lon="4.83957">
        <ele>167</ele>
        <time>2016-08-26T07:13:52Z</time>
      </trkpt>
      <trkpt lat="45.75673" lon="4.83953">
        <ele>166</ele>
        <time>2016-08-26T07:13:58Z</time>
      </trkpt>
      <trkpt lat="45.75664" lon="4.83949">
        <ele>166</ele>
        <time>2016-08-26T07:14:04Z</time>
      </trkpt>
      <trkpt lat="45.75655" lon="4.83946">
        <ele>163</ele>
        <time>2016-08-26T07:14:10Z</time>
      </trkpt>
      <trkpt lat="45.75646" lon="4.83943">
        <ele>163</ele>
        <time>2016-08-26T07:14:16Z</time>
      </trkpt>
      <trkpt lat="45.75637" lon="4.83944">
        <ele>160</ele>
        <time>2016-08-26T07:14:22Z</time>
      </trkpt>
      <trkpt lat="45.75623" lon="4.8395">
        <ele>163</ele>
        <time>2016-08-26T07:14:33Z</time>
      </trkpt>
      <trkpt lat="45.75617" lon="4.83953">
        <ele>164</ele>
        <time>2016-08-26T07:14:38Z</time>
      </trkpt>
      <trkpt lat="45.75614" lon="4.83952">
        <ele>166</ele>
        <time>2016-08-26T07:14:40Z</time>
      </trkpt>
      <trkpt lat="45.75603" lon="4.83947">
        <ele>168</ele>
        <time>2016-08-26T07:14:46Z</time>
      </trkpt>
      <trkpt lat="45.75587" lon="4.8394">
        <ele>166</ele>
        <time>2016-08-26T07:14:55Z</time>
      </trkpt>
      <trkpt lat="45.75583" lon="4.83938">
        <ele>166</ele>
        <time>2016-08-26T07:14:58Z</time>
      </trkpt>
      <trkpt lat="45.75573" lon="4.83932">
        <ele>165</ele>
        <time>2016-08-26T07:15:04Z</time>
      </trkpt>
      <trkpt lat="45.7556" lon="4.83927">
        <ele>167</ele>
        <time>2016-08-26T07:15:12Z</time>
      </trkpt>
      <trkpt lat="45.75547" lon="4.83923">
        <ele>167</ele>
        <time>2016-08-26T07:15:21Z</time>
      </trkpt>
      <trkpt lat="45.75545" lon="4.83926">
        <ele>167</ele>
        <time>2016-08-26T07:15:23Z</time>
      </trkpt>
      <trkpt lat="45.75542" lon="4.83935">
        <ele>167</ele>
        <time>2016-08-26T07:15:28Z</time>
      </trkpt>
      <trkpt lat="45.7554" lon="4.83941">
        <ele>169</ele>
        <time>2016-08-26T07:15:34Z</time>
      </trkpt>
      <trkpt lat="45.75537" lon="4.83949">
        <ele>172</ele>
        <time>2016-08-26T07:15:40Z</time>
      </trkpt>
      <trkpt lat="45.75527" lon="4.83947">
        <ele>171</ele>
        <time>2016-08-26T07:15:46Z</time>
      </trkpt>
      <trkpt lat="45.75516" lon="4.83941">
        <ele>170</ele>
        <time>2016-08-26T07:15:53Z</time>
      </trkpt>
      <trkpt lat="45.75507" lon="4.83936">
        <ele>170</ele>
        <time>2016-08-26T07:15:58Z</time>
      </trkpt>
      <trkpt lat="45.75498" lon="4.83929">
        <ele>169</ele>
        <time>2016-08-26T07:16:04Z</time>
      </trkpt>
      <trkpt lat="45.75489" lon="4.83923">
        <ele>170</ele>
        <time>2016-08-26T07:16:10Z</time>
      </trkpt>
      <trkpt lat="45.7548" lon="4.83915">
        <ele>170</ele>
        <time>2016-08-26T07:16:16Z</time>
      </trkpt>
      <trkpt lat="45.75473" lon="4.83908">
        <ele>171</ele>
        <time>2016-08-26T07:16:22Z</time>
      </trkpt>
      <trkpt lat="45.75464" lon="4.83901">
        <ele>170</ele>
        <time>2016-08-26T07:16:28Z</time>
      </trkpt>
      <trkpt lat="45.75454" lon="4.83896">
        <ele>170</ele>
        <time>2016-08-26T07:16:34Z</time>
      </trkpt>
      <trkpt lat="45.75444" lon="4.8389">
        <ele>170</ele>
        <time>2016-08-26T07:16:40Z</time>
      </trkpt>
      <trkpt lat="45.7543" lon="4.8388">
        <ele>168</ele>
        <time>2016-08-26T07:16:50Z</time>
      </trkpt>
      <trkpt lat="45.75427" lon="4.83878">
        <ele>169</ele>
        <time>2016-08-26T07:16:52Z</time>
      </trkpt>
      <trkpt lat="45.75411" lon="4.83868">
        <ele>170</ele>
        <time>2016-08-26T07:17:02Z</time>
      </trkpt>
      <trkpt lat="45.75403" lon="4.83862">
        <ele>170</ele>
        <time>2016-08-26T07:17:08Z</time>
      </trkpt>
      <trkpt lat="45.75396" lon="4.83858">
        <ele>171</ele>
        <time>2016-08-26T07:17:13Z</time>
      </trkpt>
      <trkpt lat="45.75392" lon="4.83855">
        <ele>168</ele>
        <time>2016-08-26T07:17:16Z</time>
      </trkpt>
      <trkpt lat="45.75383" lon="4.83848">
        <ele>169</ele>
        <time>2016-08-26T07:17:22Z</time>
      </trkpt>
      <trkpt lat="45.75375" lon="4.83841">
        <ele>170</ele>
        <time>2016-08-26T07:17:28Z</time>
      </trkpt>
      <trkpt lat="45.75364" lon="4.83835">
        <ele>170</ele>
        <time>2016-08-26T07:17:36Z</time>
      </trkpt>
      <trkpt lat="45.75351" lon="4.83831">
        <ele>174</ele>
        <time>2016-08-26T07:17:43Z</time>
      </trkpt>
      <trkpt lat="45.75338" lon="4.83827">
        <ele>177</ele>
        <time>2016-08-26T07:17:49Z</time>
      </trkpt>
      <trkpt lat="45.75333" lon="4.83825">
        <ele>178</ele>
        <time>2016-08-26T07:17:52Z</time>
      </trkpt>
      <trkpt lat="45.75324" lon="4.8382">
        <ele>176</ele>
        <time>2016-08-26T07:17:58Z</time>
      </trkpt>
      <trkpt lat="45.75312" lon="4.83807">
        <ele>171</ele>
        <time>2016-08-26T07:18:09Z</time>
      </trkpt>
      <trkpt lat="45.75309" lon="4.83801">
        <ele>171</ele>
        <time>2016-08-26T07:18:12Z</time>
      </trkpt>
      <trkpt lat="45.75305" lon="4.83792">
        <ele>171</ele>
        <time>2016-08-26T07:18:16Z</time>
      </trkpt>
      <trkpt lat="45.75295" lon="4.83779">
        <ele>169</ele>
        <time>2016-08-26T07:18:24Z</time>
      </trkpt>
      <trkpt lat="45.75285" lon="4.8377">
        <ele>170</ele>
        <time>2016-08-26T07:18:31Z</time>
      </trkpt>
      <trkpt lat="45.75281" lon="4.83766">
        <ele>171</ele>
        <time>2016-08-26T07:18:34Z</time>
      </trkpt>
      <trkpt lat="45.75273" lon="4.83759">
        <ele>171</ele>
        <time>2016-08-26T07:18:40Z</time>
      </trkpt>
      <trkpt lat="45.75265" lon="4.83752">
        <ele>170</ele>
        <time>2016-08-26T07:18:46Z</time>
      </trkpt>
      <trkpt lat="45.75259" lon="4.83744">
        <ele>170</ele>
        <time>2016-08-26T07:18:52Z</time>
      </trkpt>
      <trkpt lat="45.7525" lon="4.83738">
        <ele>171</ele>
        <time>2016-08-26T07:18:58Z</time>
      </trkpt>
      <trkpt lat="45.75241" lon="4.83734">
        <ele>168</ele>
        <time>2016-08-26T07:19:04Z</time>
      </trkpt>
      <trkpt lat="45.75232" lon="4.83727">
        <ele>169</ele>
        <time>2016-08-26T07:19:10Z</time>
      </trkpt>
      <trkpt lat="45.75223" lon="4.83715">
        <ele>169</ele>
        <time>2016-08-26T07:19:17Z</time>
      </trkpt>
      <trkpt lat="45.75215" lon="4.83708">
        <ele>167</ele>
        <time>2016-08-26T07:19:22Z</time>
      </trkpt>
      <trkpt lat="45.75203" lon="4.83696">
        <ele>167</ele>
        <time>2016-08-26T07:19:32Z</time>
      </trkpt>
      <trkpt lat="45.752" lon="4.8369">
        <ele>167</ele>
        <time>2016-08-26T07:19:36Z</time>
      </trkpt>
      <trkpt lat="45.75207" lon="4.83674">
        <ele>166</ele>
        <time>2016-08-26T07:19:43Z</time>
      </trkpt>
      <trkpt lat="45.75209" lon="4.83668">
        <ele>167</ele>
        <time>2016-08-26T07:19:46Z</time>
      </trkpt>
      <trkpt lat="45.75214" lon="4.83655">
        <ele>167</ele>
        <time>2016-08-26T07:19:52Z</time>
      </trkpt>
      <trkpt lat="45.75219" lon="4.83643">
        <ele>168</ele>
        <time>2016-08-26T07:19:58Z</time>
      </trkpt>
      <trkpt lat="45.75226" lon="4.83626">
        <ele>169</ele>
        <time>2016-08-26T07:20:06Z</time>
      </trkpt>
      <trkpt lat="45.75229" lon="4.83618">
        <ele>169</ele>
        <time>2016-08-26T07:20:10Z</time>
      </trkpt>
      <trkpt lat="45.75234" lon="4.83606">
        <ele>169</ele>
        <time>2016-08-26T07:20:16Z</time>
      </trkpt>
      <trkpt lat="45.75239" lon="4.83594">
        <ele>169</ele>
        <time>2016-08-26T07:20:22Z</time>
      </trkpt>
      <trkpt lat="45.75244" lon="4.83581">
        <ele>169</ele>
        <time>2016-08-26T07:20:29Z</time>
      </trkpt>
      <trkpt lat="45.75248" lon="4.83571">
        <ele>169</ele>
        <time>2016-08-26T07:20:34Z</time>
      </trkpt>
      <trkpt lat="45.75252" lon="4.83559">
        <ele>171</ele>
        <time>2016-08-26T07:20:40Z</time>
      </trkpt>
      <trkpt lat="45.75257" lon="4.83546">
        <ele>172</ele>
        <time>2016-08-26T07:20:46Z</time>
      </trkpt>
      <trkpt lat="45.75263" lon="4.83533">
        <ele>172</ele>
        <time>2016-08-26T07:20:52Z</time>
      </trkpt>
      <trkpt lat="45.75268" lon="4.8352">
        <ele>172</ele>
        <time>2016-08-26T07:20:58Z</time>
      </trkpt>
      <trkpt lat="45.75273" lon="4.83508">
        <ele>172</ele>
        <time>2016-08-26T07:21:05Z</time>
      </trkpt>
      <trkpt lat="45.75278" lon="4.83497">
        <ele>170</ele>
        <time>2016-08-26T07:21:11Z</time>
      </trkpt>
      <trkpt lat="45.75283" lon="4.83485">
        <ele>171</ele>
        <time>2016-08-26T07:21:16Z</time>
      </trkpt>
      <trkpt lat="45.75287" lon="4.83473">
        <ele>170</ele>
        <time>2016-08-26T07:21:22Z</time>
      </trkpt>
      <trkpt lat="45.75292" lon="4.83461">
        <ele>170</ele>
        <time>2016-08-26T07:21:29Z</time>
      </trkpt>
      <trkpt lat="45.75296" lon="4.83449">
        <ele>170</ele>
        <time>2016-08-26T07:21:35Z</time>
      </trkpt>
      <trkpt lat="45.75301" lon="4.83436">
        <ele>170</ele>
        <time>2016-08-26T07:21:41Z</time>
      </trkpt>
      <trkpt lat="45.75306" lon="4.83424">
        <ele>171</ele>
        <time>2016-08-26T07:21:46Z</time>
      </trkpt>
      <trkpt lat="45.7531" lon="4.8341">
        <ele>171</ele>
        <time>2016-08-26T07:21:52Z</time>
      </trkpt>
      <trkpt lat="45.75309" lon="4.834">
        <ele>171</ele>
        <time>2016-08-26T07:21:59Z</time>
      </trkpt>
      <trkpt lat="45.75313" lon="4.83388">
        <ele>171</ele>
        <time>2016-08-26T07:22:04Z</time>
      </trkpt>
      <trkpt lat="45.75318" lon="4.83375">
        <ele>171</ele>
        <time>2016-08-26T07:22:11Z</time>
      </trkpt>
      <trkpt lat="45.75325" lon="4.83365">
        <ele>168</ele>
        <time>2016-08-26T07:22:16Z</time>
      </trkpt>
      <trkpt lat="45.75333" lon="4.83361">
        <ele>167</ele>
        <time>2016-08-26T07:22:22Z</time>
      </trkpt>
      <trkpt lat="45.75343" lon="4.83347">
        <ele>165</ele>
        <time>2016-08-26T07:22:32Z</time>
      </trkpt>
      <trkpt lat="45.75345" lon="4.83343">
        <ele>167</ele>
        <time>2016-08-26T07:22:35Z</time>
      </trkpt>
      <trkpt lat="45.75354" lon="4.83325">
        <ele>165</ele>
        <time>2016-08-26T07:22:45Z</time>
      </trkpt>
      <trkpt lat="45.75355" lon="4.83323">
        <ele>165</ele>
        <time>2016-08-26T07:22:47Z</time>
      </trkpt>
      <trkpt lat="45.75361" lon="4.83303">
        <ele>164</ele>
        <time>2016-08-26T07:22:56Z</time>
      </trkpt>
      <trkpt lat="45.75364" lon="4.83292">
        <ele>166</ele>
        <time>2016-08-26T07:23:01Z</time>
      </trkpt>
      <trkpt lat="45.75368" lon="4.83289">
        <ele>170</ele>
        <time>2016-08-26T07:23:05Z</time>
      </trkpt>
      <trkpt lat="45.75373" lon="4.83276">
        <ele>171</ele>
        <time>2016-08-26T07:23:11Z</time>
      </trkpt>
      <trkpt lat="45.75375" lon="4.83257">
        <ele>172</ele>
        <time>2016-08-26T07:23:17Z</time>
      </trkpt>
      <trkpt lat="45.75368" lon="4.8323">
        <ele>169</ele>
        <time>2016-08-26T07:23:27Z</time>
      </trkpt>
      <trkpt lat="45.75375" lon="4.83222">
        <ele>170</ele>
        <time>2016-08-26T07:23:33Z</time>
      </trkpt>
      <trkpt lat="45.75377" lon="4.83217">
        <ele>173</ele>
        <time>2016-08-26T07:23:34Z</time>
      </trkpt>
      <trkpt lat="45.75393" lon="4.83196">
        <ele>177</ele>
        <time>2016-08-26T07:23:45Z</time>
      </trkpt>
      <trkpt lat="45.75402" lon="4.83185">
        <ele>176</ele>
        <time>2016-08-26T07:23:50Z</time>
      </trkpt>
      <trkpt lat="45.75405" lon="4.83182">
        <ele>175</ele>
        <time>2016-08-26T07:23:52Z</time>
      </trkpt>
      <trkpt lat="45.75418" lon="4.83174">
        <ele>171</ele>
        <time>2016-08-26T07:23:58Z</time>
      </trkpt>
      <trkpt lat="45.75414" lon="4.83151">
        <ele>167</ele>
        <time>2016-08-26T07:24:09Z</time>
      </trkpt>
      <trkpt lat="45.75413" lon="4.83145">
        <ele>167</ele>
        <time>2016-08-26T07:24:10Z</time>
      </trkpt>
      <trkpt lat="45.75415" lon="4.8314">
        <ele>165</ele>
        <time>2016-08-26T07:24:16Z</time>
      </trkpt>
      <trkpt lat="45.75422" lon="4.83128">
        <ele>164</ele>
        <time>2016-08-26T07:24:24Z</time>
      </trkpt>
      <trkpt lat="45.7543" lon="4.83103">
        <ele>169</ele>
        <time>2016-08-26T07:24:32Z</time>
      </trkpt>
      <trkpt lat="45.75433" lon="4.83095">
        <ele>176</ele>
        <time>2016-08-26T07:24:39Z</time>
      </trkpt>
      <trkpt lat="45.75433" lon="4.83093">
        <ele>174</ele>
        <time>2016-08-26T07:24:41Z</time>
      </trkpt>
      <trkpt lat="45.75436" lon="4.83078">
        <ele>169</ele>
        <time>2016-08-26T07:24:47Z</time>
      </trkpt>
      <trkpt lat="45.75444" lon="4.83066">
        <ele>169</ele>
        <time>2016-08-26T07:24:53Z</time>
      </trkpt>
      <trkpt lat="45.75454" lon="4.83051">
        <ele>173</ele>
        <time>2016-08-26T07:25:01Z</time>
      </trkpt>
      <trkpt lat="45.75461" lon="4.83045">
        <ele>172</ele>
        <time>2016-08-26T07:25:04Z</time>
      </trkpt>
      <trkpt lat="45.75474" lon="4.83031">
        <ele>176</ele>
        <time>2016-08-26T07:25:12Z</time>
      </trkpt>
      <trkpt lat="45.75462" lon="4.83016">
        <ele>176</ele>
        <time>2016-08-26T07:25:16Z</time>
      </trkpt>
      <trkpt lat="45.75439" lon="4.82992">
        <ele>178</ele>
        <time>2016-08-26T07:25:26Z</time>
      </trkpt>
      <trkpt lat="45.7543" lon="4.82983">
        <ele>178</ele>
        <time>2016-08-26T07:25:33Z</time>
      </trkpt>
      <trkpt lat="45.75428" lon="4.82982">
        <ele>179</ele>
        <time>2016-08-26T07:25:34Z</time>
      </trkpt>
      <trkpt lat="45.75415" lon="4.82984">
        <ele>181</ele>
        <time>2016-08-26T07:25:41Z</time>
      </trkpt>
      <trkpt lat="45.75407" lon="4.82978">
        <ele>177</ele>
        <time>2016-08-26T07:25:47Z</time>
      </trkpt>
      <trkpt lat="45.75398" lon="4.82975">
        <ele>178</ele>
        <time>2016-08-26T07:25:54Z</time>
      </trkpt>
      <trkpt lat="45.75379" lon="4.8297">
        <ele>178</ele>
        <time>2016-08-26T07:26:03Z</time>
      </trkpt>
      <trkpt lat="45.75372" lon="4.82972">
        <ele>180</ele>
        <time>2016-08-26T07:26:06Z</time>
      </trkpt>
      <trkpt lat="45.75366" lon="4.82965">
        <ele>184</ele>
        <time>2016-08-26T07:26:11Z</time>
      </trkpt>
      <trkpt lat="45.75367" lon="4.82947">
        <ele>179</ele>
        <time>2016-08-26T07:26:18Z</time>
      </trkpt>
      <trkpt lat="45.75376" lon="4.82936">
        <ele>179</ele>
        <time>2016-08-26T07:26:23Z</time>
      </trkpt>
      <trkpt lat="45.7538" lon="4.82916">
        <ele>180</ele>
        <time>2016-08-26T07:26:34Z</time>
      </trkpt>
      <trkpt lat="45.75385" lon="4.82905">
        <ele>173</ele>
        <time>2016-08-26T07:26:38Z</time>
      </trkpt>
    </trkseg>
  </trk>
</gpx>